<?xml version="1.0" encoding="UTF-8" standalone="no" ?>
<gpx xmlns="http://www.topografix.com/GPX/1/1" creator="MapSource 6.15.3" version="1.1" xmlns:xsi="http://www.w3.org/2001/XMLSchema-instance" xsi:schemaLocation="http://www.topografix.com/GPX/1/1 http://www.topografix.com/GPX/1/1/gpx.xsd">

  <metadata>
    <link href="http://www.garmin.com">
      <text>Garmin International</text>
    </link>
    <time>2009-06-16T02:59:08Z</time>
    <bounds maxlat="42.5501265" maxlon="-83.6278040" minlat="42.5043929" minlon="-83.7114258"/>
  </metadata>

  <trk>
    <name>Kensington-Island Lake</name>
    <extensions>
      <gpxx:TrackExtension xmlns:gpxx="http://www.garmin.com/xmlschemas/GpxExtensions/v3">
        <gpxx:DisplayColor>Blue</gpxx:DisplayColor>
      </gpxx:TrackExtension>
    </extensions>
    <trkseg>
      <trkpt lat="42.5491990" lon="-83.6429898">
        <ele>301.9913330</ele>
        <time>2009-06-14T18:59:01Z</time>
      </trkpt>
      <trkpt lat="42.5491658" lon="-83.6429848">
        <ele>296.7041016</ele>
        <time>2009-06-14T18:59:02Z</time>
      </trkpt>
      <trkpt lat="42.5493514" lon="-83.6429265">
        <ele>296.7041016</ele>
        <time>2009-06-14T18:59:26Z</time>
      </trkpt>
      <trkpt lat="42.5493635" lon="-83.6429200">
        <ele>296.2235107</ele>
        <time>2009-06-14T18:59:27Z</time>
      </trkpt>
      <trkpt lat="42.5495210" lon="-83.6429137">
        <ele>297.1846924</ele>
        <time>2009-06-14T18:59:53Z</time>
      </trkpt>
      <trkpt lat="42.5495580" lon="-83.6428988">
        <ele>297.1846924</ele>
        <time>2009-06-14T18:59:55Z</time>
      </trkpt>
      <trkpt lat="42.5495882" lon="-83.6426725">
        <ele>295.2619629</ele>
        <time>2009-06-14T19:00:02Z</time>
      </trkpt>
      <trkpt lat="42.5496404" lon="-83.6418492">
        <ele>294.7813721</ele>
        <time>2009-06-14T19:00:21Z</time>
      </trkpt>
      <trkpt lat="42.5496575" lon="-83.6416164">
        <ele>295.2619629</ele>
        <time>2009-06-14T19:00:29Z</time>
      </trkpt>
      <trkpt lat="42.5496643" lon="-83.6415437">
        <ele>295.2619629</ele>
        <time>2009-06-14T19:00:33Z</time>
      </trkpt>
      <trkpt lat="42.5496764" lon="-83.6411273">
        <ele>293.3393555</ele>
        <time>2009-06-14T19:00:50Z</time>
      </trkpt>
      <trkpt lat="42.5496857" lon="-83.6409600">
        <ele>292.8587646</ele>
        <time>2009-06-14T19:00:54Z</time>
      </trkpt>
      <trkpt lat="42.5496691" lon="-83.6408433">
        <ele>292.3781738</ele>
        <time>2009-06-14T19:01:18Z</time>
      </trkpt>
      <trkpt lat="42.5496664" lon="-83.6408411">
        <ele>292.8587646</ele>
        <time>2009-06-14T19:01:35Z</time>
      </trkpt>
      <trkpt lat="42.5495093" lon="-83.6406070">
        <ele>291.4167480</ele>
        <time>2009-06-14T19:01:45Z</time>
      </trkpt>
      <trkpt lat="42.5493971" lon="-83.6405491">
        <ele>290.9361572</ele>
        <time>2009-06-14T19:01:53Z</time>
      </trkpt>
      <trkpt lat="42.5488262" lon="-83.6406878">
        <ele>288.0522461</ele>
        <time>2009-06-14T19:02:14Z</time>
      </trkpt>
      <trkpt lat="42.5487329" lon="-83.6406563">
        <ele>286.6102295</ele>
        <time>2009-06-14T19:02:17Z</time>
      </trkpt>
      <trkpt lat="42.5485035" lon="-83.6405347">
        <ele>284.2069092</ele>
        <time>2009-06-14T19:02:24Z</time>
      </trkpt>
      <trkpt lat="42.5483786" lon="-83.6403391">
        <ele>282.2843018</ele>
        <time>2009-06-14T19:02:29Z</time>
      </trkpt>
      <trkpt lat="42.5481954" lon="-83.6400791">
        <ele>278.9196777</ele>
        <time>2009-06-14T19:02:41Z</time>
      </trkpt>
      <trkpt lat="42.5481663" lon="-83.6399829">
        <ele>277.4776611</ele>
        <time>2009-06-14T19:02:43Z</time>
      </trkpt>
      <trkpt lat="42.5482528" lon="-83.6394968">
        <ele>276.0356445</ele>
        <time>2009-06-14T19:02:58Z</time>
      </trkpt>
      <trkpt lat="42.5484969" lon="-83.6388599">
        <ele>276.9970703</ele>
        <time>2009-06-14T19:03:13Z</time>
      </trkpt>
      <trkpt lat="42.5485452" lon="-83.6386480">
        <ele>277.9582520</ele>
        <time>2009-06-14T19:03:17Z</time>
      </trkpt>
      <trkpt lat="42.5485761" lon="-83.6383890">
        <ele>277.9582520</ele>
        <time>2009-06-14T19:03:22Z</time>
      </trkpt>
      <trkpt lat="42.5486597" lon="-83.6381806">
        <ele>278.4389648</ele>
        <time>2009-06-14T19:03:26Z</time>
      </trkpt>
      <trkpt lat="42.5487600" lon="-83.6380243">
        <ele>277.4776611</ele>
        <time>2009-06-14T19:03:29Z</time>
      </trkpt>
      <trkpt lat="42.5488610" lon="-83.6377659">
        <ele>276.5163574</ele>
        <time>2009-06-14T19:03:33Z</time>
      </trkpt>
      <trkpt lat="42.5489760" lon="-83.6372941">
        <ele>276.0356445</ele>
        <time>2009-06-14T19:03:43Z</time>
      </trkpt>
      <trkpt lat="42.5489707" lon="-83.6368218">
        <ele>274.1130371</ele>
        <time>2009-06-14T19:03:52Z</time>
      </trkpt>
      <trkpt lat="42.5488122" lon="-83.6364505">
        <ele>273.1518555</ele>
        <time>2009-06-14T19:03:58Z</time>
      </trkpt>
      <trkpt lat="42.5486680" lon="-83.6358764">
        <ele>272.1904297</ele>
        <time>2009-06-14T19:04:07Z</time>
      </trkpt>
      <trkpt lat="42.5486962" lon="-83.6357374">
        <ele>271.7097168</ele>
        <time>2009-06-14T19:04:09Z</time>
      </trkpt>
      <trkpt lat="42.5487170" lon="-83.6355371">
        <ele>271.7097168</ele>
        <time>2009-06-14T19:04:12Z</time>
      </trkpt>
      <trkpt lat="42.5487044" lon="-83.6352745">
        <ele>271.2291260</ele>
        <time>2009-06-14T19:04:16Z</time>
      </trkpt>
      <trkpt lat="42.5486548" lon="-83.6351102">
        <ele>270.7484131</ele>
        <time>2009-06-14T19:04:19Z</time>
      </trkpt>
      <trkpt lat="42.5486089" lon="-83.6350067">
        <ele>269.7871094</ele>
        <time>2009-06-14T19:04:21Z</time>
      </trkpt>
      <trkpt lat="42.5484465" lon="-83.6347254">
        <ele>269.3065186</ele>
        <time>2009-06-14T19:04:26Z</time>
      </trkpt>
      <trkpt lat="42.5484088" lon="-83.6339718">
        <ele>267.3839111</ele>
        <time>2009-06-14T19:04:36Z</time>
      </trkpt>
      <trkpt lat="42.5484947" lon="-83.6337936">
        <ele>267.3839111</ele>
        <time>2009-06-14T19:04:39Z</time>
      </trkpt>
      <trkpt lat="42.5486466" lon="-83.6336322">
        <ele>267.3839111</ele>
        <time>2009-06-14T19:04:43Z</time>
      </trkpt>
      <trkpt lat="42.5493820" lon="-83.6330946">
        <ele>267.8645020</ele>
        <time>2009-06-14T19:05:05Z</time>
      </trkpt>
      <trkpt lat="42.5495055" lon="-83.6328060">
        <ele>267.8645020</ele>
        <time>2009-06-14T19:05:12Z</time>
      </trkpt>
      <trkpt lat="42.5494846" lon="-83.6329530">
        <ele>268.3450928</ele>
        <time>2009-06-14T19:05:27Z</time>
      </trkpt>
      <trkpt lat="42.5494739" lon="-83.6329580">
        <ele>268.8258057</ele>
        <time>2009-06-14T19:07:41Z</time>
      </trkpt>
      <trkpt lat="42.5494736" lon="-83.6329552">
        <ele>268.8258057</ele>
        <time>2009-06-14T19:07:54Z</time>
      </trkpt>
      <trkpt lat="42.5495214" lon="-83.6327572">
        <ele>268.8258057</ele>
        <time>2009-06-14T19:07:59Z</time>
      </trkpt>
      <trkpt lat="42.5494241" lon="-83.6321796">
        <ele>268.3450928</ele>
        <time>2009-06-14T19:08:10Z</time>
      </trkpt>
      <trkpt lat="42.5491351" lon="-83.6314233">
        <ele>268.8258057</ele>
        <time>2009-06-14T19:08:22Z</time>
      </trkpt>
      <trkpt lat="42.5489392" lon="-83.6309794">
        <ele>268.3450928</ele>
        <time>2009-06-14T19:08:30Z</time>
      </trkpt>
      <trkpt lat="42.5486392" lon="-83.6302358">
        <ele>269.3065186</ele>
        <time>2009-06-14T19:08:42Z</time>
      </trkpt>
      <trkpt lat="42.5485284" lon="-83.6300208">
        <ele>269.7871094</ele>
        <time>2009-06-14T19:08:46Z</time>
      </trkpt>
      <trkpt lat="42.5483273" lon="-83.6297838">
        <ele>270.7484131</ele>
        <time>2009-06-14T19:08:52Z</time>
      </trkpt>
      <trkpt lat="42.5478067" lon="-83.6294931">
        <ele>272.6711426</ele>
        <time>2009-06-14T19:09:06Z</time>
      </trkpt>
      <trkpt lat="42.5469966" lon="-83.6293060">
        <ele>273.1518555</ele>
        <time>2009-06-14T19:09:23Z</time>
      </trkpt>
      <trkpt lat="42.5463597" lon="-83.6292312">
        <ele>271.2291260</ele>
        <time>2009-06-14T19:09:37Z</time>
      </trkpt>
      <trkpt lat="42.5455078" lon="-83.6293928">
        <ele>270.7484131</ele>
        <time>2009-06-14T19:09:55Z</time>
      </trkpt>
      <trkpt lat="42.5451176" lon="-83.6292784">
        <ele>271.2291260</ele>
        <time>2009-06-14T19:10:04Z</time>
      </trkpt>
      <trkpt lat="42.5450385" lon="-83.6292298">
        <ele>271.2291260</ele>
        <time>2009-06-14T19:10:06Z</time>
      </trkpt>
      <trkpt lat="42.5445850" lon="-83.6289584">
        <ele>272.6711426</ele>
        <time>2009-06-14T19:10:17Z</time>
      </trkpt>
      <trkpt lat="42.5443113" lon="-83.6289370">
        <ele>273.6324463</ele>
        <time>2009-06-14T19:10:24Z</time>
      </trkpt>
      <trkpt lat="42.5441706" lon="-83.6289284">
        <ele>273.6324463</ele>
        <time>2009-06-14T19:10:27Z</time>
      </trkpt>
      <trkpt lat="42.5435343" lon="-83.6288575">
        <ele>273.6324463</ele>
        <time>2009-06-14T19:10:39Z</time>
      </trkpt>
      <trkpt lat="42.5433951" lon="-83.6287791">
        <ele>273.6324463</ele>
        <time>2009-06-14T19:10:42Z</time>
      </trkpt>
      <trkpt lat="42.5431179" lon="-83.6285441">
        <ele>273.1518555</ele>
        <time>2009-06-14T19:10:50Z</time>
      </trkpt>
      <trkpt lat="42.5430390" lon="-83.6285240">
        <ele>272.6711426</ele>
        <time>2009-06-14T19:10:52Z</time>
      </trkpt>
      <trkpt lat="42.5420763" lon="-83.6283405">
        <ele>271.7097168</ele>
        <time>2009-06-14T19:11:10Z</time>
      </trkpt>
      <trkpt lat="42.5418159" lon="-83.6284184">
        <ele>273.6324463</ele>
        <time>2009-06-14T19:11:18Z</time>
      </trkpt>
      <trkpt lat="42.5415149" lon="-83.6285303">
        <ele>274.1130371</ele>
        <time>2009-06-14T19:11:37Z</time>
      </trkpt>
      <trkpt lat="42.5408537" lon="-83.6285017">
        <ele>275.5550537</ele>
        <time>2009-06-14T19:11:55Z</time>
      </trkpt>
      <trkpt lat="42.5399940" lon="-83.6283926">
        <ele>275.5550537</ele>
        <time>2009-06-14T19:12:16Z</time>
      </trkpt>
      <trkpt lat="42.5399333" lon="-83.6283690">
        <ele>275.5550537</ele>
        <time>2009-06-14T19:12:18Z</time>
      </trkpt>
      <trkpt lat="42.5399141" lon="-83.6283393">
        <ele>275.5550537</ele>
        <time>2009-06-14T19:12:21Z</time>
      </trkpt>
      <trkpt lat="42.5401204" lon="-83.6283658">
        <ele>276.0356445</ele>
        <time>2009-06-14T19:12:33Z</time>
      </trkpt>
      <trkpt lat="42.5400986" lon="-83.6284462">
        <ele>275.5550537</ele>
        <time>2009-06-14T19:12:47Z</time>
      </trkpt>
      <trkpt lat="42.5400970" lon="-83.6284456">
        <ele>275.5550537</ele>
        <time>2009-06-14T19:13:01Z</time>
      </trkpt>
      <trkpt lat="42.5400314" lon="-83.6283994">
        <ele>276.0356445</ele>
        <time>2009-06-14T19:13:05Z</time>
      </trkpt>
      <trkpt lat="42.5397486" lon="-83.6282628">
        <ele>276.0356445</ele>
        <time>2009-06-14T19:13:14Z</time>
      </trkpt>
      <trkpt lat="42.5395347" lon="-83.6282331">
        <ele>275.5550537</ele>
        <time>2009-06-14T19:13:19Z</time>
      </trkpt>
      <trkpt lat="42.5390815" lon="-83.6283847">
        <ele>275.0744629</ele>
        <time>2009-06-14T19:13:37Z</time>
      </trkpt>
      <trkpt lat="42.5389327" lon="-83.6284833">
        <ele>275.0744629</ele>
        <time>2009-06-14T19:13:42Z</time>
      </trkpt>
      <trkpt lat="42.5388120" lon="-83.6286148">
        <ele>274.1130371</ele>
        <time>2009-06-14T19:13:46Z</time>
      </trkpt>
      <trkpt lat="42.5384855" lon="-83.6293570">
        <ele>269.7871094</ele>
        <time>2009-06-14T19:13:57Z</time>
      </trkpt>
      <trkpt lat="42.5383684" lon="-83.6295898">
        <ele>269.3065186</ele>
        <time>2009-06-14T19:14:00Z</time>
      </trkpt>
      <trkpt lat="42.5381637" lon="-83.6298090">
        <ele>268.3450928</ele>
        <time>2009-06-14T19:14:04Z</time>
      </trkpt>
      <trkpt lat="42.5379903" lon="-83.6299253">
        <ele>268.3450928</ele>
        <time>2009-06-14T19:14:07Z</time>
      </trkpt>
      <trkpt lat="42.5375844" lon="-83.6299702">
        <ele>268.3450928</ele>
        <time>2009-06-14T19:14:14Z</time>
      </trkpt>
      <trkpt lat="42.5372787" lon="-83.6299103">
        <ele>268.3450928</ele>
        <time>2009-06-14T19:14:20Z</time>
      </trkpt>
      <trkpt lat="42.5369550" lon="-83.6300647">
        <ele>267.3839111</ele>
        <time>2009-06-14T19:14:27Z</time>
      </trkpt>
      <trkpt lat="42.5368834" lon="-83.6301531">
        <ele>267.3839111</ele>
        <time>2009-06-14T19:14:29Z</time>
      </trkpt>
      <trkpt lat="42.5366794" lon="-83.6302692">
        <ele>266.9031982</ele>
        <time>2009-06-14T19:14:34Z</time>
      </trkpt>
      <trkpt lat="42.5365911" lon="-83.6302687">
        <ele>266.9031982</ele>
        <time>2009-06-14T19:14:36Z</time>
      </trkpt>
      <trkpt lat="42.5364644" lon="-83.6303523">
        <ele>266.9031982</ele>
        <time>2009-06-14T19:14:40Z</time>
      </trkpt>
      <trkpt lat="42.5362346" lon="-83.6306560">
        <ele>268.3450928</ele>
        <time>2009-06-14T19:14:59Z</time>
      </trkpt>
      <trkpt lat="42.5362201" lon="-83.6306606">
        <ele>267.8645020</ele>
        <time>2009-06-14T19:15:00Z</time>
      </trkpt>
      <trkpt lat="42.5361486" lon="-83.6306423">
        <ele>267.8645020</ele>
        <time>2009-06-14T19:15:04Z</time>
      </trkpt>
      <trkpt lat="42.5359127" lon="-83.6305935">
        <ele>267.8645020</ele>
        <time>2009-06-14T19:15:11Z</time>
      </trkpt>
      <trkpt lat="42.5357123" lon="-83.6307815">
        <ele>267.8645020</ele>
        <time>2009-06-14T19:15:17Z</time>
      </trkpt>
      <trkpt lat="42.5356568" lon="-83.6308808">
        <ele>267.8645020</ele>
        <time>2009-06-14T19:15:19Z</time>
      </trkpt>
      <trkpt lat="42.5355342" lon="-83.6312700">
        <ele>267.8645020</ele>
        <time>2009-06-14T19:15:26Z</time>
      </trkpt>
      <trkpt lat="42.5353285" lon="-83.6314484">
        <ele>267.8645020</ele>
        <time>2009-06-14T19:15:32Z</time>
      </trkpt>
      <trkpt lat="42.5349756" lon="-83.6318259">
        <ele>268.3450928</ele>
        <time>2009-06-14T19:15:43Z</time>
      </trkpt>
      <trkpt lat="42.5346844" lon="-83.6320583">
        <ele>269.3065186</ele>
        <time>2009-06-14T19:15:50Z</time>
      </trkpt>
      <trkpt lat="42.5345182" lon="-83.6321390">
        <ele>270.2677002</ele>
        <time>2009-06-14T19:15:54Z</time>
      </trkpt>
      <trkpt lat="42.5340588" lon="-83.6319995">
        <ele>269.3065186</ele>
        <time>2009-06-14T19:16:11Z</time>
      </trkpt>
      <trkpt lat="42.5339724" lon="-83.6319413">
        <ele>267.8645020</ele>
        <time>2009-06-14T19:16:13Z</time>
      </trkpt>
      <trkpt lat="42.5334796" lon="-83.6321316">
        <ele>267.8645020</ele>
        <time>2009-06-14T19:16:25Z</time>
      </trkpt>
      <trkpt lat="42.5332249" lon="-83.6326864">
        <ele>268.3450928</ele>
        <time>2009-06-14T19:16:38Z</time>
      </trkpt>
      <trkpt lat="42.5330637" lon="-83.6328836">
        <ele>269.3065186</ele>
        <time>2009-06-14T19:16:42Z</time>
      </trkpt>
      <trkpt lat="42.5328344" lon="-83.6330714">
        <ele>270.7484131</ele>
        <time>2009-06-14T19:16:48Z</time>
      </trkpt>
      <trkpt lat="42.5326325" lon="-83.6331703">
        <ele>269.3065186</ele>
        <time>2009-06-14T19:16:53Z</time>
      </trkpt>
      <trkpt lat="42.5325291" lon="-83.6331969">
        <ele>268.8258057</ele>
        <time>2009-06-14T19:16:55Z</time>
      </trkpt>
      <trkpt lat="42.5323405" lon="-83.6334690">
        <ele>267.8645020</ele>
        <time>2009-06-14T19:17:01Z</time>
      </trkpt>
      <trkpt lat="42.5322011" lon="-83.6340670">
        <ele>267.3839111</ele>
        <time>2009-06-14T19:17:10Z</time>
      </trkpt>
      <trkpt lat="42.5321089" lon="-83.6342669">
        <ele>268.8258057</ele>
        <time>2009-06-14T19:17:14Z</time>
      </trkpt>
      <trkpt lat="42.5320674" lon="-83.6343062">
        <ele>268.8258057</ele>
        <time>2009-06-14T19:17:16Z</time>
      </trkpt>
      <trkpt lat="42.5319977" lon="-83.6342960">
        <ele>270.2677002</ele>
        <time>2009-06-14T19:17:21Z</time>
      </trkpt>
      <trkpt lat="42.5320294" lon="-83.6342418">
        <ele>269.7871094</ele>
        <time>2009-06-14T19:17:51Z</time>
      </trkpt>
      <trkpt lat="42.5320494" lon="-83.6342321">
        <ele>268.8258057</ele>
        <time>2009-06-14T19:18:29Z</time>
      </trkpt>
      <trkpt lat="42.5319568" lon="-83.6343987">
        <ele>269.3065186</ele>
        <time>2009-06-14T19:18:38Z</time>
      </trkpt>
      <trkpt lat="42.5319072" lon="-83.6344402">
        <ele>269.3065186</ele>
        <time>2009-06-14T19:19:11Z</time>
      </trkpt>
      <trkpt lat="42.5317691" lon="-83.6347291">
        <ele>268.3450928</ele>
        <time>2009-06-14T19:19:42Z</time>
      </trkpt>
      <trkpt lat="42.5317044" lon="-83.6349039">
        <ele>267.8645020</ele>
        <time>2009-06-14T19:19:45Z</time>
      </trkpt>
      <trkpt lat="42.5314965" lon="-83.6352579">
        <ele>267.8645020</ele>
        <time>2009-06-14T19:19:51Z</time>
      </trkpt>
      <trkpt lat="42.5312553" lon="-83.6354117">
        <ele>267.8645020</ele>
        <time>2009-06-14T19:19:56Z</time>
      </trkpt>
      <trkpt lat="42.5308851" lon="-83.6356892">
        <ele>268.8258057</ele>
        <time>2009-06-14T19:20:05Z</time>
      </trkpt>
      <trkpt lat="42.5307374" lon="-83.6358761">
        <ele>269.3065186</ele>
        <time>2009-06-14T19:20:09Z</time>
      </trkpt>
      <trkpt lat="42.5305777" lon="-83.6360051">
        <ele>270.2677002</ele>
        <time>2009-06-14T19:20:13Z</time>
      </trkpt>
      <trkpt lat="42.5297506" lon="-83.6360427">
        <ele>272.6711426</ele>
        <time>2009-06-14T19:20:34Z</time>
      </trkpt>
      <trkpt lat="42.5289365" lon="-83.6359776">
        <ele>273.1518555</ele>
        <time>2009-06-14T19:20:51Z</time>
      </trkpt>
      <trkpt lat="42.5286081" lon="-83.6359482">
        <ele>273.6324463</ele>
        <time>2009-06-14T19:20:58Z</time>
      </trkpt>
      <trkpt lat="42.5283964" lon="-83.6359469">
        <ele>273.6324463</ele>
        <time>2009-06-14T19:21:02Z</time>
      </trkpt>
      <trkpt lat="42.5279691" lon="-83.6358731">
        <ele>275.0744629</ele>
        <time>2009-06-14T19:21:15Z</time>
      </trkpt>
      <trkpt lat="42.5278966" lon="-83.6359486">
        <ele>274.5937500</ele>
        <time>2009-06-14T19:21:17Z</time>
      </trkpt>
      <trkpt lat="42.5277403" lon="-83.6360765">
        <ele>275.0744629</ele>
        <time>2009-06-14T19:21:21Z</time>
      </trkpt>
      <trkpt lat="42.5275749" lon="-83.6361896">
        <ele>274.5937500</ele>
        <time>2009-06-14T19:21:25Z</time>
      </trkpt>
      <trkpt lat="42.5267012" lon="-83.6368236">
        <ele>275.5550537</ele>
        <time>2009-06-14T19:21:49Z</time>
      </trkpt>
      <trkpt lat="42.5262896" lon="-83.6371507">
        <ele>276.0356445</ele>
        <time>2009-06-14T19:22:07Z</time>
      </trkpt>
      <trkpt lat="42.5254643" lon="-83.6377543">
        <ele>278.4389648</ele>
        <time>2009-06-14T19:22:30Z</time>
      </trkpt>
      <trkpt lat="42.5247580" lon="-83.6382638">
        <ele>280.3616943</ele>
        <time>2009-06-14T19:22:47Z</time>
      </trkpt>
      <trkpt lat="42.5243567" lon="-83.6386265">
        <ele>282.2843018</ele>
        <time>2009-06-14T19:23:03Z</time>
      </trkpt>
      <trkpt lat="42.5242250" lon="-83.6389358">
        <ele>281.3229980</ele>
        <time>2009-06-14T19:23:10Z</time>
      </trkpt>
      <trkpt lat="42.5242605" lon="-83.6391044">
        <ele>280.8424072</ele>
        <time>2009-06-14T19:23:13Z</time>
      </trkpt>
      <trkpt lat="42.5243012" lon="-83.6393121">
        <ele>279.4002686</ele>
        <time>2009-06-14T19:23:16Z</time>
      </trkpt>
      <trkpt lat="42.5243462" lon="-83.6400404">
        <ele>276.0356445</ele>
        <time>2009-06-14T19:23:24Z</time>
      </trkpt>
      <trkpt lat="42.5243502" lon="-83.6404384">
        <ele>275.5550537</ele>
        <time>2009-06-14T19:23:28Z</time>
      </trkpt>
      <trkpt lat="42.5243371" lon="-83.6406146">
        <ele>275.5550537</ele>
        <time>2009-06-14T19:23:30Z</time>
      </trkpt>
      <trkpt lat="42.5242700" lon="-83.6409448">
        <ele>275.0744629</ele>
        <time>2009-06-14T19:23:34Z</time>
      </trkpt>
      <trkpt lat="42.5241846" lon="-83.6412258">
        <ele>274.1130371</ele>
        <time>2009-06-14T19:23:37Z</time>
      </trkpt>
      <trkpt lat="42.5241207" lon="-83.6414075">
        <ele>274.5937500</ele>
        <time>2009-06-14T19:23:39Z</time>
      </trkpt>
      <trkpt lat="42.5240090" lon="-83.6416376">
        <ele>275.0744629</ele>
        <time>2009-06-14T19:23:42Z</time>
      </trkpt>
      <trkpt lat="42.5238632" lon="-83.6418019">
        <ele>276.0356445</ele>
        <time>2009-06-14T19:23:45Z</time>
      </trkpt>
      <trkpt lat="42.5236659" lon="-83.6418811">
        <ele>276.5163574</ele>
        <time>2009-06-14T19:23:49Z</time>
      </trkpt>
      <trkpt lat="42.5234577" lon="-83.6418330">
        <ele>276.0356445</ele>
        <time>2009-06-14T19:23:53Z</time>
      </trkpt>
      <trkpt lat="42.5229371" lon="-83.6416383">
        <ele>277.9582520</ele>
        <time>2009-06-14T19:24:02Z</time>
      </trkpt>
      <trkpt lat="42.5226852" lon="-83.6416460">
        <ele>278.9196777</ele>
        <time>2009-06-14T19:24:15Z</time>
      </trkpt>
      <trkpt lat="42.5226807" lon="-83.6416552">
        <ele>278.4389648</ele>
        <time>2009-06-14T19:24:45Z</time>
      </trkpt>
      <trkpt lat="42.5225747" lon="-83.6418695">
        <ele>279.4002686</ele>
        <time>2009-06-14T19:24:54Z</time>
      </trkpt>
      <trkpt lat="42.5227382" lon="-83.6425424">
        <ele>278.9196777</ele>
        <time>2009-06-14T19:25:09Z</time>
      </trkpt>
      <trkpt lat="42.5227574" lon="-83.6425770">
        <ele>279.4002686</ele>
        <time>2009-06-14T19:25:10Z</time>
      </trkpt>
      <trkpt lat="42.5229533" lon="-83.6424842">
        <ele>278.9196777</ele>
        <time>2009-06-14T19:25:16Z</time>
      </trkpt>
      <trkpt lat="42.5231982" lon="-83.6423785">
        <ele>277.9582520</ele>
        <time>2009-06-14T19:25:22Z</time>
      </trkpt>
      <trkpt lat="42.5233240" lon="-83.6425231">
        <ele>276.5163574</ele>
        <time>2009-06-14T19:25:26Z</time>
      </trkpt>
      <trkpt lat="42.5234132" lon="-83.6426985">
        <ele>276.5163574</ele>
        <time>2009-06-14T19:25:29Z</time>
      </trkpt>
      <trkpt lat="42.5235349" lon="-83.6428833">
        <ele>276.0356445</ele>
        <time>2009-06-14T19:25:33Z</time>
      </trkpt>
      <trkpt lat="42.5236033" lon="-83.6431423">
        <ele>276.0356445</ele>
        <time>2009-06-14T19:25:38Z</time>
      </trkpt>
      <trkpt lat="42.5236056" lon="-83.6432493">
        <ele>276.0356445</ele>
        <time>2009-06-14T19:25:41Z</time>
      </trkpt>
      <trkpt lat="42.5236574" lon="-83.6433640">
        <ele>275.0744629</ele>
        <time>2009-06-14T19:25:47Z</time>
      </trkpt>
      <trkpt lat="42.5236715" lon="-83.6434031">
        <ele>275.0744629</ele>
        <time>2009-06-14T19:26:35Z</time>
      </trkpt>
      <trkpt lat="42.5236731" lon="-83.6434018">
        <ele>275.0744629</ele>
        <time>2009-06-14T19:27:04Z</time>
      </trkpt>
      <trkpt lat="42.5235037" lon="-83.6434169">
        <ele>275.5550537</ele>
        <time>2009-06-14T19:27:17Z</time>
      </trkpt>
      <trkpt lat="42.5234349" lon="-83.6434574">
        <ele>275.5550537</ele>
        <time>2009-06-14T19:27:22Z</time>
      </trkpt>
      <trkpt lat="42.5231390" lon="-83.6439535">
        <ele>276.5163574</ele>
        <time>2009-06-14T19:27:43Z</time>
      </trkpt>
      <trkpt lat="42.5229790" lon="-83.6445517">
        <ele>275.5550537</ele>
        <time>2009-06-14T19:27:57Z</time>
      </trkpt>
      <trkpt lat="42.5225793" lon="-83.6449093">
        <ele>275.0744629</ele>
        <time>2009-06-14T19:28:11Z</time>
      </trkpt>
      <trkpt lat="42.5221557" lon="-83.6449357">
        <ele>275.0744629</ele>
        <time>2009-06-14T19:28:25Z</time>
      </trkpt>
      <trkpt lat="42.5220648" lon="-83.6449639">
        <ele>273.6324463</ele>
        <time>2009-06-14T19:28:27Z</time>
      </trkpt>
      <trkpt lat="42.5218410" lon="-83.6451848">
        <ele>274.5937500</ele>
        <time>2009-06-14T19:28:33Z</time>
      </trkpt>
      <trkpt lat="42.5217639" lon="-83.6453003">
        <ele>275.5550537</ele>
        <time>2009-06-14T19:28:36Z</time>
      </trkpt>
      <trkpt lat="42.5215222" lon="-83.6455556">
        <ele>275.5550537</ele>
        <time>2009-06-14T19:28:43Z</time>
      </trkpt>
      <trkpt lat="42.5212565" lon="-83.6456083">
        <ele>274.1130371</ele>
        <time>2009-06-14T19:28:48Z</time>
      </trkpt>
      <trkpt lat="42.5211098" lon="-83.6456039">
        <ele>273.1518555</ele>
        <time>2009-06-14T19:28:50Z</time>
      </trkpt>
      <trkpt lat="42.5209378" lon="-83.6458359">
        <ele>273.1518555</ele>
        <time>2009-06-14T19:28:54Z</time>
      </trkpt>
      <trkpt lat="42.5209251" lon="-83.6459893">
        <ele>273.6324463</ele>
        <time>2009-06-14T19:28:56Z</time>
      </trkpt>
      <trkpt lat="42.5207735" lon="-83.6468117">
        <ele>275.0744629</ele>
        <time>2009-06-14T19:29:09Z</time>
      </trkpt>
      <trkpt lat="42.5206724" lon="-83.6473731">
        <ele>275.5550537</ele>
        <time>2009-06-14T19:29:18Z</time>
      </trkpt>
      <trkpt lat="42.5206446" lon="-83.6475152">
        <ele>275.5550537</ele>
        <time>2009-06-14T19:29:20Z</time>
      </trkpt>
      <trkpt lat="42.5206058" lon="-83.6476641">
        <ele>274.5937500</ele>
        <time>2009-06-14T19:29:22Z</time>
      </trkpt>
      <trkpt lat="42.5204048" lon="-83.6480395">
        <ele>272.1904297</ele>
        <time>2009-06-14T19:29:28Z</time>
      </trkpt>
      <trkpt lat="42.5203530" lon="-83.6484071">
        <ele>273.1518555</ele>
        <time>2009-06-14T19:29:33Z</time>
      </trkpt>
      <trkpt lat="42.5203771" lon="-83.6485674">
        <ele>275.0744629</ele>
        <time>2009-06-14T19:29:36Z</time>
      </trkpt>
      <trkpt lat="42.5203878" lon="-83.6486586">
        <ele>274.5937500</ele>
        <time>2009-06-14T19:29:38Z</time>
      </trkpt>
      <trkpt lat="42.5203708" lon="-83.6488411">
        <ele>275.0744629</ele>
        <time>2009-06-14T19:29:41Z</time>
      </trkpt>
      <trkpt lat="42.5203462" lon="-83.6490406">
        <ele>274.1130371</ele>
        <time>2009-06-14T19:29:44Z</time>
      </trkpt>
      <trkpt lat="42.5202932" lon="-83.6495088">
        <ele>273.1518555</ele>
        <time>2009-06-14T19:29:51Z</time>
      </trkpt>
      <trkpt lat="42.5202160" lon="-83.6500774">
        <ele>270.2677002</ele>
        <time>2009-06-14T19:29:58Z</time>
      </trkpt>
      <trkpt lat="42.5196867" lon="-83.6513796">
        <ele>268.3450928</ele>
        <time>2009-06-14T19:30:15Z</time>
      </trkpt>
      <trkpt lat="42.5193996" lon="-83.6518413">
        <ele>267.8645020</ele>
        <time>2009-06-14T19:30:24Z</time>
      </trkpt>
      <trkpt lat="42.5192748" lon="-83.6521534">
        <ele>266.9031982</ele>
        <time>2009-06-14T19:30:30Z</time>
      </trkpt>
      <trkpt lat="42.5192381" lon="-83.6522637">
        <ele>266.9031982</ele>
        <time>2009-06-14T19:30:32Z</time>
      </trkpt>
      <trkpt lat="42.5189832" lon="-83.6527289">
        <ele>267.8645020</ele>
        <time>2009-06-14T19:30:41Z</time>
      </trkpt>
      <trkpt lat="42.5188758" lon="-83.6528280">
        <ele>267.8645020</ele>
        <time>2009-06-14T19:30:44Z</time>
      </trkpt>
      <trkpt lat="42.5187611" lon="-83.6530090">
        <ele>267.8645020</ele>
        <time>2009-06-14T19:30:48Z</time>
      </trkpt>
      <trkpt lat="42.5185909" lon="-83.6535823">
        <ele>268.8258057</ele>
        <time>2009-06-14T19:31:04Z</time>
      </trkpt>
      <trkpt lat="42.5185231" lon="-83.6540468">
        <ele>268.8258057</ele>
        <time>2009-06-14T19:31:29Z</time>
      </trkpt>
      <trkpt lat="42.5185533" lon="-83.6545935">
        <ele>268.8258057</ele>
        <time>2009-06-14T19:31:46Z</time>
      </trkpt>
      <trkpt lat="42.5185614" lon="-83.6550985">
        <ele>268.3450928</ele>
        <time>2009-06-14T19:32:34Z</time>
      </trkpt>
      <trkpt lat="42.5183631" lon="-83.6557067">
        <ele>268.8258057</ele>
        <time>2009-06-14T19:32:48Z</time>
      </trkpt>
      <trkpt lat="42.5177616" lon="-83.6564921">
        <ele>268.8258057</ele>
        <time>2009-06-14T19:33:10Z</time>
      </trkpt>
      <trkpt lat="42.5174182" lon="-83.6574202">
        <ele>267.8645020</ele>
        <time>2009-06-14T19:33:28Z</time>
      </trkpt>
      <trkpt lat="42.5172340" lon="-83.6578313">
        <ele>268.8258057</ele>
        <time>2009-06-14T19:33:37Z</time>
      </trkpt>
      <trkpt lat="42.5171696" lon="-83.6581128">
        <ele>268.8258057</ele>
        <time>2009-06-14T19:33:42Z</time>
      </trkpt>
      <trkpt lat="42.5171626" lon="-83.6583128">
        <ele>268.3450928</ele>
        <time>2009-06-14T19:33:45Z</time>
      </trkpt>
      <trkpt lat="42.5171689" lon="-83.6586173">
        <ele>268.3450928</ele>
        <time>2009-06-14T19:33:50Z</time>
      </trkpt>
      <trkpt lat="42.5171659" lon="-83.6587469">
        <ele>268.3450928</ele>
        <time>2009-06-14T19:33:52Z</time>
      </trkpt>
      <trkpt lat="42.5171554" lon="-83.6588768">
        <ele>268.3450928</ele>
        <time>2009-06-14T19:33:54Z</time>
      </trkpt>
      <trkpt lat="42.5170063" lon="-83.6595212">
        <ele>268.3450928</ele>
        <time>2009-06-14T19:34:04Z</time>
      </trkpt>
      <trkpt lat="42.5169640" lon="-83.6599270">
        <ele>267.3839111</ele>
        <time>2009-06-14T19:34:10Z</time>
      </trkpt>
      <trkpt lat="42.5169680" lon="-83.6601341">
        <ele>266.9031982</ele>
        <time>2009-06-14T19:34:13Z</time>
      </trkpt>
      <trkpt lat="42.5169634" lon="-83.6602578">
        <ele>266.9031982</ele>
        <time>2009-06-14T19:34:15Z</time>
      </trkpt>
      <trkpt lat="42.5169601" lon="-83.6603804">
        <ele>266.9031982</ele>
        <time>2009-06-14T19:34:17Z</time>
      </trkpt>
      <trkpt lat="42.5168099" lon="-83.6610070">
        <ele>267.3839111</ele>
        <time>2009-06-14T19:34:33Z</time>
      </trkpt>
      <trkpt lat="42.5167895" lon="-83.6613643">
        <ele>265.9418945</ele>
        <time>2009-06-14T19:35:05Z</time>
      </trkpt>
      <trkpt lat="42.5166620" lon="-83.6615748">
        <ele>266.9031982</ele>
        <time>2009-06-14T19:35:14Z</time>
      </trkpt>
      <trkpt lat="42.5162347" lon="-83.6616984">
        <ele>267.3839111</ele>
        <time>2009-06-14T19:35:29Z</time>
      </trkpt>
      <trkpt lat="42.5160146" lon="-83.6620948">
        <ele>269.3065186</ele>
        <time>2009-06-14T19:36:30Z</time>
      </trkpt>
      <trkpt lat="42.5159267" lon="-83.6622810">
        <ele>269.7871094</ele>
        <time>2009-06-14T19:36:34Z</time>
      </trkpt>
      <trkpt lat="42.5158661" lon="-83.6623687">
        <ele>270.2677002</ele>
        <time>2009-06-14T19:36:36Z</time>
      </trkpt>
      <trkpt lat="42.5154434" lon="-83.6628567">
        <ele>273.6324463</ele>
        <time>2009-06-14T19:36:48Z</time>
      </trkpt>
      <trkpt lat="42.5152810" lon="-83.6630645">
        <ele>274.5937500</ele>
        <time>2009-06-14T19:36:53Z</time>
      </trkpt>
      <trkpt lat="42.5152166" lon="-83.6631354">
        <ele>275.0744629</ele>
        <time>2009-06-14T19:36:55Z</time>
      </trkpt>
      <trkpt lat="42.5147771" lon="-83.6631364">
        <ele>276.0356445</ele>
        <time>2009-06-14T19:37:07Z</time>
      </trkpt>
      <trkpt lat="42.5147661" lon="-83.6631455">
        <ele>275.5550537</ele>
        <time>2009-06-14T19:37:32Z</time>
      </trkpt>
      <trkpt lat="42.5147505" lon="-83.6631500">
        <ele>276.0356445</ele>
        <time>2009-06-14T19:37:39Z</time>
      </trkpt>
      <trkpt lat="42.5146123" lon="-83.6631334">
        <ele>276.5163574</ele>
        <time>2009-06-14T19:37:45Z</time>
      </trkpt>
      <trkpt lat="42.5142072" lon="-83.6633638">
        <ele>276.9970703</ele>
        <time>2009-06-14T19:37:55Z</time>
      </trkpt>
      <trkpt lat="42.5140990" lon="-83.6634669">
        <ele>276.9970703</ele>
        <time>2009-06-14T19:37:58Z</time>
      </trkpt>
      <trkpt lat="42.5136672" lon="-83.6637423">
        <ele>277.4776611</ele>
        <time>2009-06-14T19:38:08Z</time>
      </trkpt>
      <trkpt lat="42.5130818" lon="-83.6638751">
        <ele>278.9196777</ele>
        <time>2009-06-14T19:38:20Z</time>
      </trkpt>
      <trkpt lat="42.5128676" lon="-83.6640505">
        <ele>279.8808594</ele>
        <time>2009-06-14T19:38:26Z</time>
      </trkpt>
      <trkpt lat="42.5127525" lon="-83.6644260">
        <ele>279.4002686</ele>
        <time>2009-06-14T19:38:33Z</time>
      </trkpt>
      <trkpt lat="42.5127742" lon="-83.6646943">
        <ele>279.8808594</ele>
        <time>2009-06-14T19:38:37Z</time>
      </trkpt>
      <trkpt lat="42.5126753" lon="-83.6649785">
        <ele>280.3616943</ele>
        <time>2009-06-14T19:38:42Z</time>
      </trkpt>
      <trkpt lat="42.5124227" lon="-83.6651282">
        <ele>281.8035889</ele>
        <time>2009-06-14T19:38:49Z</time>
      </trkpt>
      <trkpt lat="42.5122965" lon="-83.6652330">
        <ele>282.2843018</ele>
        <time>2009-06-14T19:38:53Z</time>
      </trkpt>
      <trkpt lat="42.5119984" lon="-83.6658513">
        <ele>283.2456055</ele>
        <time>2009-06-14T19:39:05Z</time>
      </trkpt>
      <trkpt lat="42.5119247" lon="-83.6662342">
        <ele>282.7650146</ele>
        <time>2009-06-14T19:39:11Z</time>
      </trkpt>
      <trkpt lat="42.5119261" lon="-83.6663813">
        <ele>282.7650146</ele>
        <time>2009-06-14T19:39:13Z</time>
      </trkpt>
      <trkpt lat="42.5121068" lon="-83.6679331">
        <ele>279.8808594</ele>
        <time>2009-06-14T19:39:32Z</time>
      </trkpt>
      <trkpt lat="42.5120588" lon="-83.6683879">
        <ele>278.9196777</ele>
        <time>2009-06-14T19:39:37Z</time>
      </trkpt>
      <trkpt lat="42.5119680" lon="-83.6703311">
        <ele>277.4776611</ele>
        <time>2009-06-14T19:39:57Z</time>
      </trkpt>
      <trkpt lat="42.5118114" lon="-83.6708319">
        <ele>277.4776611</ele>
        <time>2009-06-14T19:40:03Z</time>
      </trkpt>
      <trkpt lat="42.5117269" lon="-83.6709532">
        <ele>276.9970703</ele>
        <time>2009-06-14T19:40:05Z</time>
      </trkpt>
      <trkpt lat="42.5108851" lon="-83.6725561">
        <ele>276.0356445</ele>
        <time>2009-06-14T19:40:28Z</time>
      </trkpt>
      <trkpt lat="42.5106619" lon="-83.6728678">
        <ele>274.5937500</ele>
        <time>2009-06-14T19:40:33Z</time>
      </trkpt>
      <trkpt lat="42.5105327" lon="-83.6733158">
        <ele>273.6324463</ele>
        <time>2009-06-14T19:40:38Z</time>
      </trkpt>
      <trkpt lat="42.5105379" lon="-83.6734183">
        <ele>273.6324463</ele>
        <time>2009-06-14T19:40:39Z</time>
      </trkpt>
      <trkpt lat="42.5105720" lon="-83.6737397">
        <ele>272.1904297</ele>
        <time>2009-06-14T19:40:42Z</time>
      </trkpt>
      <trkpt lat="42.5108606" lon="-83.6741466">
        <ele>269.7871094</ele>
        <time>2009-06-14T19:40:48Z</time>
      </trkpt>
      <trkpt lat="42.5113520" lon="-83.6743456">
        <ele>269.7871094</ele>
        <time>2009-06-14T19:40:57Z</time>
      </trkpt>
      <trkpt lat="42.5115147" lon="-83.6745026">
        <ele>269.7871094</ele>
        <time>2009-06-14T19:41:01Z</time>
      </trkpt>
      <trkpt lat="42.5116039" lon="-83.6746392">
        <ele>269.3065186</ele>
        <time>2009-06-14T19:41:04Z</time>
      </trkpt>
      <trkpt lat="42.5117184" lon="-83.6749034">
        <ele>269.3065186</ele>
        <time>2009-06-14T19:41:09Z</time>
      </trkpt>
      <trkpt lat="42.5121003" lon="-83.6757360">
        <ele>269.7871094</ele>
        <time>2009-06-14T19:41:25Z</time>
      </trkpt>
      <trkpt lat="42.5121439" lon="-83.6761934">
        <ele>269.7871094</ele>
        <time>2009-06-14T19:41:33Z</time>
      </trkpt>
      <trkpt lat="42.5120992" lon="-83.6763031">
        <ele>270.2677002</ele>
        <time>2009-06-14T19:41:35Z</time>
      </trkpt>
      <trkpt lat="42.5119230" lon="-83.6765166">
        <ele>270.7484131</ele>
        <time>2009-06-14T19:41:40Z</time>
      </trkpt>
      <trkpt lat="42.5115901" lon="-83.6766792">
        <ele>271.2291260</ele>
        <time>2009-06-14T19:41:47Z</time>
      </trkpt>
      <trkpt lat="42.5114103" lon="-83.6767722">
        <ele>271.2291260</ele>
        <time>2009-06-14T19:41:51Z</time>
      </trkpt>
      <trkpt lat="42.5112436" lon="-83.6768655">
        <ele>271.2291260</ele>
        <time>2009-06-14T19:41:55Z</time>
      </trkpt>
      <trkpt lat="42.5108281" lon="-83.6771849">
        <ele>271.7097168</ele>
        <time>2009-06-14T19:42:04Z</time>
      </trkpt>
      <trkpt lat="42.5103374" lon="-83.6782783">
        <ele>272.1904297</ele>
        <time>2009-06-14T19:42:22Z</time>
      </trkpt>
      <trkpt lat="42.5102561" lon="-83.6802004">
        <ele>273.6324463</ele>
        <time>2009-06-14T19:42:48Z</time>
      </trkpt>
      <trkpt lat="42.5102899" lon="-83.6816154">
        <ele>276.9970703</ele>
        <time>2009-06-14T19:43:08Z</time>
      </trkpt>
      <trkpt lat="42.5103223" lon="-83.6818250">
        <ele>276.9970703</ele>
        <time>2009-06-14T19:43:11Z</time>
      </trkpt>
      <trkpt lat="42.5102317" lon="-83.6823312">
        <ele>277.9582520</ele>
        <time>2009-06-14T19:43:19Z</time>
      </trkpt>
      <trkpt lat="42.5101621" lon="-83.6824169">
        <ele>278.4389648</ele>
        <time>2009-06-14T19:43:21Z</time>
      </trkpt>
      <trkpt lat="42.5099852" lon="-83.6826132">
        <ele>278.4389648</ele>
        <time>2009-06-14T19:43:26Z</time>
      </trkpt>
      <trkpt lat="42.5098939" lon="-83.6827651">
        <ele>279.4002686</ele>
        <time>2009-06-14T19:43:29Z</time>
      </trkpt>
      <trkpt lat="42.5096591" lon="-83.6843503">
        <ele>277.9582520</ele>
        <time>2009-06-14T19:43:51Z</time>
      </trkpt>
      <trkpt lat="42.5096213" lon="-83.6847730">
        <ele>277.9582520</ele>
        <time>2009-06-14T19:43:56Z</time>
      </trkpt>
      <trkpt lat="42.5094929" lon="-83.6852793">
        <ele>276.5163574</ele>
        <time>2009-06-14T19:44:02Z</time>
      </trkpt>
      <trkpt lat="42.5092490" lon="-83.6856196">
        <ele>275.0744629</ele>
        <time>2009-06-14T19:44:07Z</time>
      </trkpt>
      <trkpt lat="42.5091164" lon="-83.6857273">
        <ele>274.1130371</ele>
        <time>2009-06-14T19:44:09Z</time>
      </trkpt>
      <trkpt lat="42.5090216" lon="-83.6863405">
        <ele>273.1518555</ele>
        <time>2009-06-14T19:44:16Z</time>
      </trkpt>
      <trkpt lat="42.5091098" lon="-83.6878083">
        <ele>272.1904297</ele>
        <time>2009-06-14T19:44:33Z</time>
      </trkpt>
      <trkpt lat="42.5089389" lon="-83.6892265">
        <ele>273.6324463</ele>
        <time>2009-06-14T19:44:54Z</time>
      </trkpt>
      <trkpt lat="42.5089035" lon="-83.6900279">
        <ele>273.1518555</ele>
        <time>2009-06-14T19:45:05Z</time>
      </trkpt>
      <trkpt lat="42.5090033" lon="-83.6905254">
        <ele>272.6711426</ele>
        <time>2009-06-14T19:45:12Z</time>
      </trkpt>
      <trkpt lat="42.5093953" lon="-83.6910165">
        <ele>272.6711426</ele>
        <time>2009-06-14T19:45:24Z</time>
      </trkpt>
      <trkpt lat="42.5093999" lon="-83.6910724">
        <ele>272.6711426</ele>
        <time>2009-06-14T19:45:25Z</time>
      </trkpt>
      <trkpt lat="42.5094079" lon="-83.6912658">
        <ele>272.6711426</ele>
        <time>2009-06-14T19:45:28Z</time>
      </trkpt>
      <trkpt lat="42.5094000" lon="-83.6915469">
        <ele>272.1904297</ele>
        <time>2009-06-14T19:45:32Z</time>
      </trkpt>
      <trkpt lat="42.5093503" lon="-83.6918067">
        <ele>271.7097168</ele>
        <time>2009-06-14T19:45:35Z</time>
      </trkpt>
      <trkpt lat="42.5092495" lon="-83.6920623">
        <ele>270.2677002</ele>
        <time>2009-06-14T19:45:38Z</time>
      </trkpt>
      <trkpt lat="42.5086317" lon="-83.6939120">
        <ele>269.7871094</ele>
        <time>2009-06-14T19:46:01Z</time>
      </trkpt>
      <trkpt lat="42.5086101" lon="-83.6942166">
        <ele>271.2291260</ele>
        <time>2009-06-14T19:46:05Z</time>
      </trkpt>
      <trkpt lat="42.5086322" lon="-83.6945201">
        <ele>271.7097168</ele>
        <time>2009-06-14T19:46:09Z</time>
      </trkpt>
      <trkpt lat="42.5089235" lon="-83.6951646">
        <ele>273.6324463</ele>
        <time>2009-06-14T19:46:20Z</time>
      </trkpt>
      <trkpt lat="42.5092286" lon="-83.6954271">
        <ele>272.6711426</ele>
        <time>2009-06-14T19:46:27Z</time>
      </trkpt>
      <trkpt lat="42.5097901" lon="-83.6955099">
        <ele>271.7097168</ele>
        <time>2009-06-14T19:46:37Z</time>
      </trkpt>
      <trkpt lat="42.5101094" lon="-83.6961932">
        <ele>271.7097168</ele>
        <time>2009-06-14T19:46:49Z</time>
      </trkpt>
      <trkpt lat="42.5099856" lon="-83.6964146">
        <ele>271.2291260</ele>
        <time>2009-06-14T19:46:53Z</time>
      </trkpt>
      <trkpt lat="42.5098102" lon="-83.6965861">
        <ele>271.2291260</ele>
        <time>2009-06-14T19:46:58Z</time>
      </trkpt>
      <trkpt lat="42.5096567" lon="-83.6967889">
        <ele>270.7484131</ele>
        <time>2009-06-14T19:47:03Z</time>
      </trkpt>
      <trkpt lat="42.5094085" lon="-83.6976810">
        <ele>270.2677002</ele>
        <time>2009-06-14T19:47:16Z</time>
      </trkpt>
      <trkpt lat="42.5094013" lon="-83.6978996">
        <ele>269.7871094</ele>
        <time>2009-06-14T19:47:19Z</time>
      </trkpt>
      <trkpt lat="42.5093745" lon="-83.6980539">
        <ele>269.7871094</ele>
        <time>2009-06-14T19:47:21Z</time>
      </trkpt>
      <trkpt lat="42.5092791" lon="-83.6986612">
        <ele>268.8258057</ele>
        <time>2009-06-14T19:47:30Z</time>
      </trkpt>
      <trkpt lat="42.5090308" lon="-83.6991811">
        <ele>269.7871094</ele>
        <time>2009-06-14T19:47:36Z</time>
      </trkpt>
      <trkpt lat="42.5088048" lon="-83.6992968">
        <ele>270.2677002</ele>
        <time>2009-06-14T19:47:41Z</time>
      </trkpt>
      <trkpt lat="42.5086046" lon="-83.6992851">
        <ele>271.2291260</ele>
        <time>2009-06-14T19:47:46Z</time>
      </trkpt>
      <trkpt lat="42.5081515" lon="-83.6991946">
        <ele>272.1904297</ele>
        <time>2009-06-14T19:47:56Z</time>
      </trkpt>
      <trkpt lat="42.5077875" lon="-83.6988465">
        <ele>273.6324463</ele>
        <time>2009-06-14T19:48:06Z</time>
      </trkpt>
      <trkpt lat="42.5077148" lon="-83.6987613">
        <ele>273.6324463</ele>
        <time>2009-06-14T19:48:08Z</time>
      </trkpt>
      <trkpt lat="42.5072663" lon="-83.6987723">
        <ele>274.5937500</ele>
        <time>2009-06-14T19:48:19Z</time>
      </trkpt>
      <trkpt lat="42.5071578" lon="-83.6989425">
        <ele>274.5937500</ele>
        <time>2009-06-14T19:48:23Z</time>
      </trkpt>
      <trkpt lat="42.5070183" lon="-83.6990650">
        <ele>274.1130371</ele>
        <time>2009-06-14T19:48:27Z</time>
      </trkpt>
      <trkpt lat="42.5065968" lon="-83.6989589">
        <ele>274.5937500</ele>
        <time>2009-06-14T19:48:36Z</time>
      </trkpt>
      <trkpt lat="42.5062880" lon="-83.6990096">
        <ele>274.1130371</ele>
        <time>2009-06-14T19:48:42Z</time>
      </trkpt>
      <trkpt lat="42.5057613" lon="-83.6995437">
        <ele>275.5550537</ele>
        <time>2009-06-14T19:48:55Z</time>
      </trkpt>
      <trkpt lat="42.5057034" lon="-83.6996616">
        <ele>275.5550537</ele>
        <time>2009-06-14T19:48:57Z</time>
      </trkpt>
      <trkpt lat="42.5056523" lon="-83.7001340">
        <ele>275.5550537</ele>
        <time>2009-06-14T19:49:04Z</time>
      </trkpt>
      <trkpt lat="42.5054513" lon="-83.7007849">
        <ele>275.5550537</ele>
        <time>2009-06-14T19:49:13Z</time>
      </trkpt>
      <trkpt lat="42.5052029" lon="-83.7016280">
        <ele>273.6324463</ele>
        <time>2009-06-14T19:49:26Z</time>
      </trkpt>
      <trkpt lat="42.5052073" lon="-83.7018229">
        <ele>273.1518555</ele>
        <time>2009-06-14T19:49:28Z</time>
      </trkpt>
      <trkpt lat="42.5051752" lon="-83.7022945">
        <ele>272.1904297</ele>
        <time>2009-06-14T19:49:33Z</time>
      </trkpt>
      <trkpt lat="42.5051722" lon="-83.7024613">
        <ele>271.7097168</ele>
        <time>2009-06-14T19:49:35Z</time>
      </trkpt>
      <trkpt lat="42.5051449" lon="-83.7031943">
        <ele>273.6324463</ele>
        <time>2009-06-14T19:49:45Z</time>
      </trkpt>
      <trkpt lat="42.5051436" lon="-83.7033197">
        <ele>273.1518555</ele>
        <time>2009-06-14T19:49:47Z</time>
      </trkpt>
      <trkpt lat="42.5051112" lon="-83.7036657">
        <ele>273.6324463</ele>
        <time>2009-06-14T19:49:52Z</time>
      </trkpt>
      <trkpt lat="42.5050891" lon="-83.7043182">
        <ele>275.0744629</ele>
        <time>2009-06-14T19:50:01Z</time>
      </trkpt>
      <trkpt lat="42.5050290" lon="-83.7059837">
        <ele>273.6324463</ele>
        <time>2009-06-14T19:50:22Z</time>
      </trkpt>
      <trkpt lat="42.5054194" lon="-83.7064415">
        <ele>275.5550537</ele>
        <time>2009-06-14T19:50:34Z</time>
      </trkpt>
      <trkpt lat="42.5056719" lon="-83.7064028">
        <ele>275.5550537</ele>
        <time>2009-06-14T19:50:40Z</time>
      </trkpt>
      <trkpt lat="42.5060784" lon="-83.7065167">
        <ele>276.0356445</ele>
        <time>2009-06-14T19:50:49Z</time>
      </trkpt>
      <trkpt lat="42.5062672" lon="-83.7065967">
        <ele>275.5550537</ele>
        <time>2009-06-14T19:50:53Z</time>
      </trkpt>
      <trkpt lat="42.5065576" lon="-83.7068803">
        <ele>276.0356445</ele>
        <time>2009-06-14T19:51:00Z</time>
      </trkpt>
      <trkpt lat="42.5066774" lon="-83.7071028">
        <ele>275.5550537</ele>
        <time>2009-06-14T19:51:04Z</time>
      </trkpt>
      <trkpt lat="42.5070273" lon="-83.7075068">
        <ele>275.0744629</ele>
        <time>2009-06-14T19:51:13Z</time>
      </trkpt>
      <trkpt lat="42.5073724" lon="-83.7072656">
        <ele>276.0356445</ele>
        <time>2009-06-14T19:51:23Z</time>
      </trkpt>
      <trkpt lat="42.5074028" lon="-83.7071572">
        <ele>275.5550537</ele>
        <time>2009-06-14T19:51:25Z</time>
      </trkpt>
      <trkpt lat="42.5076408" lon="-83.7069164">
        <ele>275.5550537</ele>
        <time>2009-06-14T19:51:32Z</time>
      </trkpt>
      <trkpt lat="42.5077620" lon="-83.7068917">
        <ele>275.5550537</ele>
        <time>2009-06-14T19:51:35Z</time>
      </trkpt>
      <trkpt lat="42.5081441" lon="-83.7067788">
        <ele>275.0744629</ele>
        <time>2009-06-14T19:51:42Z</time>
      </trkpt>
      <trkpt lat="42.5085276" lon="-83.7062767">
        <ele>275.5550537</ele>
        <time>2009-06-14T19:51:52Z</time>
      </trkpt>
      <trkpt lat="42.5088201" lon="-83.7060576">
        <ele>276.0356445</ele>
        <time>2009-06-14T19:51:58Z</time>
      </trkpt>
      <trkpt lat="42.5089295" lon="-83.7060030">
        <ele>275.5550537</ele>
        <time>2009-06-14T19:52:00Z</time>
      </trkpt>
      <trkpt lat="42.5090459" lon="-83.7059531">
        <ele>276.0356445</ele>
        <time>2009-06-14T19:52:02Z</time>
      </trkpt>
      <trkpt lat="42.5095760" lon="-83.7063823">
        <ele>276.5163574</ele>
        <time>2009-06-14T19:52:13Z</time>
      </trkpt>
      <trkpt lat="42.5096428" lon="-83.7067407">
        <ele>275.5550537</ele>
        <time>2009-06-14T19:52:18Z</time>
      </trkpt>
      <trkpt lat="42.5098506" lon="-83.7070830">
        <ele>275.5550537</ele>
        <time>2009-06-14T19:52:24Z</time>
      </trkpt>
      <trkpt lat="42.5099773" lon="-83.7071318">
        <ele>276.0356445</ele>
        <time>2009-06-14T19:52:27Z</time>
      </trkpt>
      <trkpt lat="42.5109638" lon="-83.7079268">
        <ele>274.5937500</ele>
        <time>2009-06-14T19:52:44Z</time>
      </trkpt>
      <trkpt lat="42.5112456" lon="-83.7082161">
        <ele>276.5163574</ele>
        <time>2009-06-14T19:52:51Z</time>
      </trkpt>
      <trkpt lat="42.5113839" lon="-83.7089121">
        <ele>276.9970703</ele>
        <time>2009-06-14T19:53:03Z</time>
      </trkpt>
      <trkpt lat="42.5113261" lon="-83.7090449">
        <ele>276.9970703</ele>
        <time>2009-06-14T19:53:05Z</time>
      </trkpt>
      <trkpt lat="42.5111391" lon="-83.7093133">
        <ele>276.9970703</ele>
        <time>2009-06-14T19:53:10Z</time>
      </trkpt>
      <trkpt lat="42.5107826" lon="-83.7096298">
        <ele>277.4776611</ele>
        <time>2009-06-14T19:53:18Z</time>
      </trkpt>
      <trkpt lat="42.5104314" lon="-83.7097918">
        <ele>277.9582520</ele>
        <time>2009-06-14T19:53:25Z</time>
      </trkpt>
      <trkpt lat="42.5103256" lon="-83.7098148">
        <ele>277.9582520</ele>
        <time>2009-06-14T19:53:27Z</time>
      </trkpt>
      <trkpt lat="42.5097767" lon="-83.7098423">
        <ele>277.9582520</ele>
        <time>2009-06-14T19:53:37Z</time>
      </trkpt>
      <trkpt lat="42.5094514" lon="-83.7101620">
        <ele>277.4776611</ele>
        <time>2009-06-14T19:53:45Z</time>
      </trkpt>
      <trkpt lat="42.5094360" lon="-83.7102222">
        <ele>277.4776611</ele>
        <time>2009-06-14T19:53:57Z</time>
      </trkpt>
      <trkpt lat="42.5094095" lon="-83.7103587">
        <ele>277.4776611</ele>
        <time>2009-06-14T19:54:02Z</time>
      </trkpt>
      <trkpt lat="42.5093279" lon="-83.7109933">
        <ele>276.9970703</ele>
        <time>2009-06-14T19:54:16Z</time>
      </trkpt>
      <trkpt lat="42.5091814" lon="-83.7112742">
        <ele>276.0356445</ele>
        <time>2009-06-14T19:54:19Z</time>
      </trkpt>
      <trkpt lat="42.5090304" lon="-83.7114258">
        <ele>276.0356445</ele>
        <time>2009-06-14T19:54:22Z</time>
      </trkpt>
      <trkpt lat="42.5084300" lon="-83.7114174">
        <ele>276.9970703</ele>
        <time>2009-06-14T19:54:32Z</time>
      </trkpt>
      <trkpt lat="42.5081735" lon="-83.7113856">
        <ele>277.4776611</ele>
        <time>2009-06-14T19:54:36Z</time>
      </trkpt>
      <trkpt lat="42.5079153" lon="-83.7113598">
        <ele>276.5163574</ele>
        <time>2009-06-14T19:54:41Z</time>
      </trkpt>
      <trkpt lat="42.5077308" lon="-83.7112901">
        <ele>276.0356445</ele>
        <time>2009-06-14T19:54:44Z</time>
      </trkpt>
      <trkpt lat="42.5074685" lon="-83.7111546">
        <ele>276.5163574</ele>
        <time>2009-06-14T19:54:48Z</time>
      </trkpt>
      <trkpt lat="42.5073347" lon="-83.7111243">
        <ele>276.5163574</ele>
        <time>2009-06-14T19:54:50Z</time>
      </trkpt>
      <trkpt lat="42.5071451" lon="-83.7109883">
        <ele>275.5550537</ele>
        <time>2009-06-14T19:54:53Z</time>
      </trkpt>
      <trkpt lat="42.5068270" lon="-83.7106826">
        <ele>275.0744629</ele>
        <time>2009-06-14T19:54:57Z</time>
      </trkpt>
      <trkpt lat="42.5068545" lon="-83.7103577">
        <ele>276.0356445</ele>
        <time>2009-06-14T19:55:01Z</time>
      </trkpt>
      <trkpt lat="42.5069761" lon="-83.7097469">
        <ele>276.0356445</ele>
        <time>2009-06-14T19:55:08Z</time>
      </trkpt>
      <trkpt lat="42.5070472" lon="-83.7096038">
        <ele>276.5163574</ele>
        <time>2009-06-14T19:55:10Z</time>
      </trkpt>
      <trkpt lat="42.5071052" lon="-83.7094537">
        <ele>275.5550537</ele>
        <time>2009-06-14T19:55:12Z</time>
      </trkpt>
      <trkpt lat="42.5071251" lon="-83.7090348">
        <ele>276.0356445</ele>
        <time>2009-06-14T19:55:17Z</time>
      </trkpt>
      <trkpt lat="42.5069668" lon="-83.7087695">
        <ele>275.5550537</ele>
        <time>2009-06-14T19:55:21Z</time>
      </trkpt>
      <trkpt lat="42.5066741" lon="-83.7086462">
        <ele>275.0744629</ele>
        <time>2009-06-14T19:55:26Z</time>
      </trkpt>
      <trkpt lat="42.5063241" lon="-83.7086638">
        <ele>273.6324463</ele>
        <time>2009-06-14T19:55:31Z</time>
      </trkpt>
      <trkpt lat="42.5061831" lon="-83.7086840">
        <ele>273.1518555</ele>
        <time>2009-06-14T19:55:33Z</time>
      </trkpt>
      <trkpt lat="42.5055035" lon="-83.7086746">
        <ele>270.7484131</ele>
        <time>2009-06-14T19:55:42Z</time>
      </trkpt>
      <trkpt lat="42.5050981" lon="-83.7088413">
        <ele>269.3065186</ele>
        <time>2009-06-14T19:55:47Z</time>
      </trkpt>
      <trkpt lat="42.5047202" lon="-83.7092364">
        <ele>268.8258057</ele>
        <time>2009-06-14T19:55:55Z</time>
      </trkpt>
      <trkpt lat="42.5045835" lon="-83.7089898">
        <ele>269.3065186</ele>
        <time>2009-06-14T19:56:03Z</time>
      </trkpt>
      <trkpt lat="42.5043929" lon="-83.7086509">
        <ele>268.8258057</ele>
        <time>2009-06-14T19:56:13Z</time>
      </trkpt>
      <trkpt lat="42.5046547" lon="-83.7080160">
        <ele>269.7871094</ele>
        <time>2009-06-14T19:56:30Z</time>
      </trkpt>
      <trkpt lat="42.5048042" lon="-83.7071953">
        <ele>273.1518555</ele>
        <time>2009-06-14T19:56:46Z</time>
      </trkpt>
      <trkpt lat="42.5048559" lon="-83.7065885">
        <ele>275.5550537</ele>
        <time>2009-06-14T19:56:57Z</time>
      </trkpt>
      <trkpt lat="42.5048476" lon="-83.7063652">
        <ele>275.5550537</ele>
        <time>2009-06-14T19:57:01Z</time>
      </trkpt>
      <trkpt lat="42.5049186" lon="-83.7057407">
        <ele>275.5550537</ele>
        <time>2009-06-14T19:57:10Z</time>
      </trkpt>
      <trkpt lat="42.5050761" lon="-83.7053335">
        <ele>276.0356445</ele>
        <time>2009-06-14T19:57:18Z</time>
      </trkpt>
      <trkpt lat="42.5051136" lon="-83.7044771">
        <ele>277.4776611</ele>
        <time>2009-06-14T19:57:32Z</time>
      </trkpt>
      <trkpt lat="42.5051771" lon="-83.7027733">
        <ele>275.0744629</ele>
        <time>2009-06-14T19:57:52Z</time>
      </trkpt>
      <trkpt lat="42.5051942" lon="-83.7013229">
        <ele>277.9582520</ele>
        <time>2009-06-14T19:58:10Z</time>
      </trkpt>
      <trkpt lat="42.5052193" lon="-83.7011408">
        <ele>277.9582520</ele>
        <time>2009-06-14T19:58:13Z</time>
      </trkpt>
      <trkpt lat="42.5052858" lon="-83.7009708">
        <ele>277.9582520</ele>
        <time>2009-06-14T19:58:16Z</time>
      </trkpt>
      <trkpt lat="42.5053883" lon="-83.7008484">
        <ele>277.9582520</ele>
        <time>2009-06-14T19:58:19Z</time>
      </trkpt>
      <trkpt lat="42.5055051" lon="-83.7006590">
        <ele>277.9582520</ele>
        <time>2009-06-14T19:58:23Z</time>
      </trkpt>
      <trkpt lat="42.5056425" lon="-83.7001731">
        <ele>277.9582520</ele>
        <time>2009-06-14T19:58:31Z</time>
      </trkpt>
      <trkpt lat="42.5056647" lon="-83.7000458">
        <ele>277.9582520</ele>
        <time>2009-06-14T19:58:33Z</time>
      </trkpt>
      <trkpt lat="42.5056743" lon="-83.6998463">
        <ele>277.9582520</ele>
        <time>2009-06-14T19:58:36Z</time>
      </trkpt>
      <trkpt lat="42.5058393" lon="-83.6994494">
        <ele>277.4776611</ele>
        <time>2009-06-14T19:58:43Z</time>
      </trkpt>
      <trkpt lat="42.5062223" lon="-83.6990748">
        <ele>276.9970703</ele>
        <time>2009-06-14T19:58:53Z</time>
      </trkpt>
      <trkpt lat="42.5063338" lon="-83.6989730">
        <ele>276.9970703</ele>
        <time>2009-06-14T19:58:56Z</time>
      </trkpt>
      <trkpt lat="42.5068943" lon="-83.6990284">
        <ele>277.4776611</ele>
        <time>2009-06-14T19:59:11Z</time>
      </trkpt>
      <trkpt lat="42.5070937" lon="-83.6990125">
        <ele>276.9970703</ele>
        <time>2009-06-14T19:59:20Z</time>
      </trkpt>
      <trkpt lat="42.5074932" lon="-83.6986082">
        <ele>276.5163574</ele>
        <time>2009-06-14T19:59:39Z</time>
      </trkpt>
      <trkpt lat="42.5075308" lon="-83.6986159">
        <ele>276.5163574</ele>
        <time>2009-06-14T19:59:40Z</time>
      </trkpt>
      <trkpt lat="42.5076905" lon="-83.6986900">
        <ele>276.9970703</ele>
        <time>2009-06-14T19:59:44Z</time>
      </trkpt>
      <trkpt lat="42.5080273" lon="-83.6990593">
        <ele>275.5550537</ele>
        <time>2009-06-14T19:59:53Z</time>
      </trkpt>
      <trkpt lat="42.5087447" lon="-83.6992990">
        <ele>273.6324463</ele>
        <time>2009-06-14T20:00:04Z</time>
      </trkpt>
      <trkpt lat="42.5092600" lon="-83.6987290">
        <ele>271.2291260</ele>
        <time>2009-06-14T20:00:12Z</time>
      </trkpt>
      <trkpt lat="42.5093837" lon="-83.6976166">
        <ele>272.1904297</ele>
        <time>2009-06-14T20:00:23Z</time>
      </trkpt>
      <trkpt lat="42.5096895" lon="-83.6966915">
        <ele>273.1518555</ele>
        <time>2009-06-14T20:00:35Z</time>
      </trkpt>
      <trkpt lat="42.5097704" lon="-83.6965895">
        <ele>273.1518555</ele>
        <time>2009-06-14T20:00:37Z</time>
      </trkpt>
      <trkpt lat="42.5099884" lon="-83.6963986">
        <ele>273.6324463</ele>
        <time>2009-06-14T20:00:42Z</time>
      </trkpt>
      <trkpt lat="42.5100104" lon="-83.6956782">
        <ele>273.6324463</ele>
        <time>2009-06-14T20:00:55Z</time>
      </trkpt>
      <trkpt lat="42.5099748" lon="-83.6956385">
        <ele>274.1130371</ele>
        <time>2009-06-14T20:00:56Z</time>
      </trkpt>
      <trkpt lat="42.5097472" lon="-83.6955229">
        <ele>274.1130371</ele>
        <time>2009-06-14T20:01:01Z</time>
      </trkpt>
      <trkpt lat="42.5093845" lon="-83.6954956">
        <ele>274.5937500</ele>
        <time>2009-06-14T20:01:08Z</time>
      </trkpt>
      <trkpt lat="42.5090275" lon="-83.6953192">
        <ele>275.5550537</ele>
        <time>2009-06-14T20:01:16Z</time>
      </trkpt>
      <trkpt lat="42.5086519" lon="-83.6946577">
        <ele>275.0744629</ele>
        <time>2009-06-14T20:01:28Z</time>
      </trkpt>
      <trkpt lat="42.5086014" lon="-83.6942588">
        <ele>274.1130371</ele>
        <time>2009-06-14T20:01:33Z</time>
      </trkpt>
      <trkpt lat="42.5089364" lon="-83.6927394">
        <ele>271.2291260</ele>
        <time>2009-06-14T20:01:50Z</time>
      </trkpt>
      <trkpt lat="42.5093204" lon="-83.6918702">
        <ele>273.1518555</ele>
        <time>2009-06-14T20:02:03Z</time>
      </trkpt>
      <trkpt lat="42.5093918" lon="-83.6910849">
        <ele>275.5550537</ele>
        <time>2009-06-14T20:02:17Z</time>
      </trkpt>
      <trkpt lat="42.5089916" lon="-83.6906376">
        <ele>274.5937500</ele>
        <time>2009-06-14T20:02:29Z</time>
      </trkpt>
      <trkpt lat="42.5089526" lon="-83.6905239">
        <ele>274.5937500</ele>
        <time>2009-06-14T20:02:31Z</time>
      </trkpt>
      <trkpt lat="42.5088604" lon="-83.6897549">
        <ele>276.0356445</ele>
        <time>2009-06-14T20:02:44Z</time>
      </trkpt>
      <trkpt lat="42.5088467" lon="-83.6896403">
        <ele>276.9970703</ele>
        <time>2009-06-14T20:02:46Z</time>
      </trkpt>
      <trkpt lat="42.5089951" lon="-83.6886034">
        <ele>276.5163574</ele>
        <time>2009-06-14T20:03:01Z</time>
      </trkpt>
      <trkpt lat="42.5090400" lon="-83.6883084">
        <ele>276.0356445</ele>
        <time>2009-06-14T20:03:05Z</time>
      </trkpt>
      <trkpt lat="42.5091458" lon="-83.6868246">
        <ele>276.9970703</ele>
        <time>2009-06-14T20:03:24Z</time>
      </trkpt>
      <trkpt lat="42.5089702" lon="-83.6861226">
        <ele>275.0744629</ele>
        <time>2009-06-14T20:03:33Z</time>
      </trkpt>
      <trkpt lat="42.5090994" lon="-83.6856994">
        <ele>276.0356445</ele>
        <time>2009-06-14T20:03:40Z</time>
      </trkpt>
      <trkpt lat="42.5092195" lon="-83.6856144">
        <ele>276.9970703</ele>
        <time>2009-06-14T20:03:43Z</time>
      </trkpt>
      <trkpt lat="42.5093318" lon="-83.6855202">
        <ele>278.4389648</ele>
        <time>2009-06-14T20:03:46Z</time>
      </trkpt>
      <trkpt lat="42.5094673" lon="-83.6852875">
        <ele>279.4002686</ele>
        <time>2009-06-14T20:03:51Z</time>
      </trkpt>
      <trkpt lat="42.5096636" lon="-83.6839582">
        <ele>280.8424072</ele>
        <time>2009-06-14T20:04:13Z</time>
      </trkpt>
      <trkpt lat="42.5099580" lon="-83.6826340">
        <ele>280.8424072</ele>
        <time>2009-06-14T20:04:34Z</time>
      </trkpt>
      <trkpt lat="42.5102079" lon="-83.6823304">
        <ele>280.3616943</ele>
        <time>2009-06-14T20:04:40Z</time>
      </trkpt>
      <trkpt lat="42.5103075" lon="-83.6818523">
        <ele>279.4002686</ele>
        <time>2009-06-14T20:04:46Z</time>
      </trkpt>
      <trkpt lat="42.5102303" lon="-83.6803571">
        <ele>276.0356445</ele>
        <time>2009-06-14T20:05:01Z</time>
      </trkpt>
      <trkpt lat="42.5103004" lon="-83.6785130">
        <ele>275.5550537</ele>
        <time>2009-06-14T20:05:20Z</time>
      </trkpt>
      <trkpt lat="42.5102988" lon="-83.6784190">
        <ele>275.0744629</ele>
        <time>2009-06-14T20:05:21Z</time>
      </trkpt>
      <trkpt lat="42.5103495" lon="-83.6780435">
        <ele>275.0744629</ele>
        <time>2009-06-14T20:05:25Z</time>
      </trkpt>
      <trkpt lat="42.5105947" lon="-83.6774468">
        <ele>274.5937500</ele>
        <time>2009-06-14T20:05:33Z</time>
      </trkpt>
      <trkpt lat="42.5114581" lon="-83.6767488">
        <ele>273.6324463</ele>
        <time>2009-06-14T20:05:54Z</time>
      </trkpt>
      <trkpt lat="42.5119137" lon="-83.6764986">
        <ele>273.6324463</ele>
        <time>2009-06-14T20:06:04Z</time>
      </trkpt>
      <trkpt lat="42.5120044" lon="-83.6764136">
        <ele>273.1518555</ele>
        <time>2009-06-14T20:06:06Z</time>
      </trkpt>
      <trkpt lat="42.5120843" lon="-83.6763183">
        <ele>272.1904297</ele>
        <time>2009-06-14T20:06:08Z</time>
      </trkpt>
      <trkpt lat="42.5121236" lon="-83.6758674">
        <ele>272.6711426</ele>
        <time>2009-06-14T20:06:15Z</time>
      </trkpt>
      <trkpt lat="42.5117100" lon="-83.6749636">
        <ele>272.1904297</ele>
        <time>2009-06-14T20:06:33Z</time>
      </trkpt>
      <trkpt lat="42.5116175" lon="-83.6747375">
        <ele>272.1904297</ele>
        <time>2009-06-14T20:06:37Z</time>
      </trkpt>
      <trkpt lat="42.5115146" lon="-83.6745324">
        <ele>272.1904297</ele>
        <time>2009-06-14T20:06:41Z</time>
      </trkpt>
      <trkpt lat="42.5113741" lon="-83.6743780">
        <ele>272.1904297</ele>
        <time>2009-06-14T20:06:45Z</time>
      </trkpt>
      <trkpt lat="42.5107170" lon="-83.6740529">
        <ele>273.6324463</ele>
        <time>2009-06-14T20:07:06Z</time>
      </trkpt>
      <trkpt lat="42.5105482" lon="-83.6733356">
        <ele>276.5163574</ele>
        <time>2009-06-14T20:07:24Z</time>
      </trkpt>
      <trkpt lat="42.5108826" lon="-83.6725402">
        <ele>277.9582520</ele>
        <time>2009-06-14T20:07:42Z</time>
      </trkpt>
      <trkpt lat="42.5110881" lon="-83.6722220">
        <ele>278.9196777</ele>
        <time>2009-06-14T20:07:49Z</time>
      </trkpt>
      <trkpt lat="42.5112792" lon="-83.6718196">
        <ele>279.4002686</ele>
        <time>2009-06-14T20:07:58Z</time>
      </trkpt>
      <trkpt lat="42.5112520" lon="-83.6717362">
        <ele>278.9196777</ele>
        <time>2009-06-14T20:08:02Z</time>
      </trkpt>
      <trkpt lat="42.5112109" lon="-83.6717281">
        <ele>279.4002686</ele>
        <time>2009-06-14T20:08:47Z</time>
      </trkpt>
      <trkpt lat="42.5112100" lon="-83.6717355">
        <ele>278.9196777</ele>
        <time>2009-06-14T20:10:52Z</time>
      </trkpt>
      <trkpt lat="42.5112231" lon="-83.6718519">
        <ele>278.4389648</ele>
        <time>2009-06-14T20:10:58Z</time>
      </trkpt>
      <trkpt lat="42.5112549" lon="-83.6718597">
        <ele>277.9582520</ele>
        <time>2009-06-14T20:11:02Z</time>
      </trkpt>
      <trkpt lat="42.5115714" lon="-83.6712182">
        <ele>278.9196777</ele>
        <time>2009-06-14T20:11:25Z</time>
      </trkpt>
      <trkpt lat="42.5119341" lon="-83.6705293">
        <ele>278.4389648</ele>
        <time>2009-06-14T20:11:47Z</time>
      </trkpt>
      <trkpt lat="42.5119568" lon="-83.6695274">
        <ele>279.4002686</ele>
        <time>2009-06-14T20:12:09Z</time>
      </trkpt>
      <trkpt lat="42.5119577" lon="-83.6692104">
        <ele>279.8808594</ele>
        <time>2009-06-14T20:12:15Z</time>
      </trkpt>
      <trkpt lat="42.5120876" lon="-83.6679247">
        <ele>282.2843018</ele>
        <time>2009-06-14T20:12:39Z</time>
      </trkpt>
      <trkpt lat="42.5119964" lon="-83.6669541">
        <ele>284.2069092</ele>
        <time>2009-06-14T20:12:59Z</time>
      </trkpt>
      <trkpt lat="42.5119026" lon="-83.6663580">
        <ele>285.1682129</ele>
        <time>2009-06-14T20:13:10Z</time>
      </trkpt>
      <trkpt lat="42.5119120" lon="-83.6661854">
        <ele>285.1682129</ele>
        <time>2009-06-14T20:13:13Z</time>
      </trkpt>
      <trkpt lat="42.5119747" lon="-83.6658885">
        <ele>285.1682129</ele>
        <time>2009-06-14T20:13:18Z</time>
      </trkpt>
      <trkpt lat="42.5123171" lon="-83.6651686">
        <ele>284.6876221</ele>
        <time>2009-06-14T20:13:31Z</time>
      </trkpt>
      <trkpt lat="42.5124204" lon="-83.6650632">
        <ele>284.6876221</ele>
        <time>2009-06-14T20:13:34Z</time>
      </trkpt>
      <trkpt lat="42.5127559" lon="-83.6645739">
        <ele>281.8035889</ele>
        <time>2009-06-14T20:13:45Z</time>
      </trkpt>
      <trkpt lat="42.5127458" lon="-83.6644304">
        <ele>282.7650146</ele>
        <time>2009-06-14T20:13:47Z</time>
      </trkpt>
      <trkpt lat="42.5129414" lon="-83.6639575">
        <ele>282.2843018</ele>
        <time>2009-06-14T20:13:55Z</time>
      </trkpt>
      <trkpt lat="42.5139830" lon="-83.6635354">
        <ele>279.8808594</ele>
        <time>2009-06-14T20:14:13Z</time>
      </trkpt>
      <trkpt lat="42.5144631" lon="-83.6631949">
        <ele>278.9196777</ele>
        <time>2009-06-14T20:14:25Z</time>
      </trkpt>
      <trkpt lat="42.5146197" lon="-83.6630873">
        <ele>279.4002686</ele>
        <time>2009-06-14T20:14:29Z</time>
      </trkpt>
      <trkpt lat="42.5146847" lon="-83.6630936">
        <ele>279.4002686</ele>
        <time>2009-06-14T20:14:31Z</time>
      </trkpt>
      <trkpt lat="42.5146894" lon="-83.6630604">
        <ele>278.9196777</ele>
        <time>2009-06-14T20:14:44Z</time>
      </trkpt>
      <trkpt lat="42.5146909" lon="-83.6630647">
        <ele>278.9196777</ele>
        <time>2009-06-14T20:14:45Z</time>
      </trkpt>
      <trkpt lat="42.5146403" lon="-83.6630215">
        <ele>278.9196777</ele>
        <time>2009-06-14T20:14:51Z</time>
      </trkpt>
      <trkpt lat="42.5147893" lon="-83.6622619">
        <ele>279.4002686</ele>
        <time>2009-06-14T20:15:06Z</time>
      </trkpt>
      <trkpt lat="42.5147615" lon="-83.6617629">
        <ele>279.4002686</ele>
        <time>2009-06-14T20:15:14Z</time>
      </trkpt>
      <trkpt lat="42.5144687" lon="-83.6605975">
        <ele>280.3616943</ele>
        <time>2009-06-14T20:15:31Z</time>
      </trkpt>
      <trkpt lat="42.5144806" lon="-83.6602163">
        <ele>280.3616943</ele>
        <time>2009-06-14T20:15:36Z</time>
      </trkpt>
      <trkpt lat="42.5145593" lon="-83.6598880">
        <ele>279.4002686</ele>
        <time>2009-06-14T20:15:40Z</time>
      </trkpt>
      <trkpt lat="42.5148371" lon="-83.6591927">
        <ele>277.9582520</ele>
        <time>2009-06-14T20:15:48Z</time>
      </trkpt>
      <trkpt lat="42.5148691" lon="-83.6573843">
        <ele>276.0356445</ele>
        <time>2009-06-14T20:16:07Z</time>
      </trkpt>
      <trkpt lat="42.5148888" lon="-83.6564399">
        <ele>276.9970703</ele>
        <time>2009-06-14T20:16:18Z</time>
      </trkpt>
      <trkpt lat="42.5151547" lon="-83.6559305">
        <ele>275.0744629</ele>
        <time>2009-06-14T20:16:33Z</time>
      </trkpt>
      <trkpt lat="42.5152327" lon="-83.6558175">
        <ele>275.0744629</ele>
        <time>2009-06-14T20:17:22Z</time>
      </trkpt>
      <trkpt lat="42.5154098" lon="-83.6555962">
        <ele>274.5937500</ele>
        <time>2009-06-14T20:17:41Z</time>
      </trkpt>
      <trkpt lat="42.5154137" lon="-83.6555850">
        <ele>274.5937500</ele>
        <time>2009-06-14T20:17:46Z</time>
      </trkpt>
      <trkpt lat="42.5153527" lon="-83.6551500">
        <ele>274.5937500</ele>
        <time>2009-06-14T20:17:56Z</time>
      </trkpt>
      <trkpt lat="42.5154066" lon="-83.6549239">
        <ele>274.5937500</ele>
        <time>2009-06-14T20:18:00Z</time>
      </trkpt>
      <trkpt lat="42.5163330" lon="-83.6533356">
        <ele>276.0356445</ele>
        <time>2009-06-14T20:18:27Z</time>
      </trkpt>
      <trkpt lat="42.5167257" lon="-83.6520101">
        <ele>278.9196777</ele>
        <time>2009-06-14T20:18:50Z</time>
      </trkpt>
      <trkpt lat="42.5167443" lon="-83.6502868">
        <ele>280.8424072</ele>
        <time>2009-06-14T20:19:15Z</time>
      </trkpt>
      <trkpt lat="42.5167456" lon="-83.6502182">
        <ele>280.3616943</ele>
        <time>2009-06-14T20:19:17Z</time>
      </trkpt>
      <trkpt lat="42.5167604" lon="-83.6502030">
        <ele>280.3616943</ele>
        <time>2009-06-14T20:19:19Z</time>
      </trkpt>
      <trkpt lat="42.5167732" lon="-83.6503708">
        <ele>280.3616943</ele>
        <time>2009-06-14T20:19:35Z</time>
      </trkpt>
      <trkpt lat="42.5167733" lon="-83.6503721">
        <ele>279.8808594</ele>
        <time>2009-06-14T20:19:56Z</time>
      </trkpt>
      <trkpt lat="42.5167524" lon="-83.6504339">
        <ele>279.8808594</ele>
        <time>2009-06-14T20:20:01Z</time>
      </trkpt>
      <trkpt lat="42.5167961" lon="-83.6496321">
        <ele>280.8424072</ele>
        <time>2009-06-14T20:20:20Z</time>
      </trkpt>
      <trkpt lat="42.5168565" lon="-83.6480603">
        <ele>284.2069092</ele>
        <time>2009-06-14T20:20:46Z</time>
      </trkpt>
      <trkpt lat="42.5168422" lon="-83.6466574">
        <ele>287.5714111</ele>
        <time>2009-06-14T20:21:09Z</time>
      </trkpt>
      <trkpt lat="42.5169013" lon="-83.6454160">
        <ele>290.9361572</ele>
        <time>2009-06-14T20:21:29Z</time>
      </trkpt>
      <trkpt lat="42.5168265" lon="-83.6439319">
        <ele>291.8974609</ele>
        <time>2009-06-14T20:21:53Z</time>
      </trkpt>
      <trkpt lat="42.5168344" lon="-83.6438149">
        <ele>292.3781738</ele>
        <time>2009-06-14T20:21:55Z</time>
      </trkpt>
      <trkpt lat="42.5168240" lon="-83.6423964">
        <ele>295.2619629</ele>
        <time>2009-06-14T20:22:19Z</time>
      </trkpt>
      <trkpt lat="42.5168077" lon="-83.6413933">
        <ele>298.6267090</ele>
        <time>2009-06-14T20:22:37Z</time>
      </trkpt>
      <trkpt lat="42.5167496" lon="-83.6399919">
        <ele>298.6267090</ele>
        <time>2009-06-14T20:23:03Z</time>
      </trkpt>
      <trkpt lat="42.5167575" lon="-83.6398687">
        <ele>298.6267090</ele>
        <time>2009-06-14T20:23:05Z</time>
      </trkpt>
      <trkpt lat="42.5167200" lon="-83.6395165">
        <ele>299.1072998</ele>
        <time>2009-06-14T20:23:11Z</time>
      </trkpt>
      <trkpt lat="42.5167243" lon="-83.6392289">
        <ele>299.1072998</ele>
        <time>2009-06-14T20:23:16Z</time>
      </trkpt>
      <trkpt lat="42.5165413" lon="-83.6381792">
        <ele>300.0687256</ele>
        <time>2009-06-14T20:23:35Z</time>
      </trkpt>
      <trkpt lat="42.5164100" lon="-83.6375370">
        <ele>301.0299072</ele>
        <time>2009-06-14T20:23:46Z</time>
      </trkpt>
      <trkpt lat="42.5163795" lon="-83.6374312">
        <ele>301.0299072</ele>
        <time>2009-06-14T20:23:48Z</time>
      </trkpt>
      <trkpt lat="42.5160448" lon="-83.6358850">
        <ele>304.3946533</ele>
        <time>2009-06-14T20:24:14Z</time>
      </trkpt>
      <trkpt lat="42.5160329" lon="-83.6358181">
        <ele>304.3946533</ele>
        <time>2009-06-14T20:24:15Z</time>
      </trkpt>
      <trkpt lat="42.5159086" lon="-83.6352785">
        <ele>306.7978516</ele>
        <time>2009-06-14T20:24:25Z</time>
      </trkpt>
      <trkpt lat="42.5161993" lon="-83.6348173">
        <ele>310.1624756</ele>
        <time>2009-06-14T20:24:37Z</time>
      </trkpt>
      <trkpt lat="42.5172254" lon="-83.6351278">
        <ele>312.5657959</ele>
        <time>2009-06-14T20:25:00Z</time>
      </trkpt>
      <trkpt lat="42.5182828" lon="-83.6352158">
        <ele>313.5272217</ele>
        <time>2009-06-14T20:25:24Z</time>
      </trkpt>
      <trkpt lat="42.5189489" lon="-83.6353236">
        <ele>313.0465088</ele>
        <time>2009-06-14T20:25:39Z</time>
      </trkpt>
      <trkpt lat="42.5189423" lon="-83.6353403">
        <ele>313.0465088</ele>
        <time>2009-06-14T20:25:46Z</time>
      </trkpt>
      <trkpt lat="42.5188639" lon="-83.6353225">
        <ele>313.0465088</ele>
        <time>2009-06-14T20:25:50Z</time>
      </trkpt>
      <trkpt lat="42.5184501" lon="-83.6352919">
        <ele>313.5272217</ele>
        <time>2009-06-14T20:26:03Z</time>
      </trkpt>
      <trkpt lat="42.5183910" lon="-83.6352613">
        <ele>313.5272217</ele>
        <time>2009-06-14T20:26:12Z</time>
      </trkpt>
      <trkpt lat="42.5184326" lon="-83.6352769">
        <ele>313.5272217</ele>
        <time>2009-06-14T20:26:41Z</time>
      </trkpt>
      <trkpt lat="42.5184320" lon="-83.6352768">
        <ele>313.5272217</ele>
        <time>2009-06-14T20:26:47Z</time>
      </trkpt>
      <trkpt lat="42.5184697" lon="-83.6352751">
        <ele>313.0465088</ele>
        <time>2009-06-14T20:26:50Z</time>
      </trkpt>
      <trkpt lat="42.5184938" lon="-83.6352898">
        <ele>313.0465088</ele>
        <time>2009-06-14T20:26:55Z</time>
      </trkpt>
      <trkpt lat="42.5184409" lon="-83.6352811">
        <ele>313.0465088</ele>
        <time>2009-06-14T20:27:26Z</time>
      </trkpt>
      <trkpt lat="42.5184433" lon="-83.6352800">
        <ele>313.5272217</ele>
        <time>2009-06-14T20:27:43Z</time>
      </trkpt>
      <trkpt lat="42.5185739" lon="-83.6353161">
        <ele>313.0465088</ele>
        <time>2009-06-14T20:27:49Z</time>
      </trkpt>
      <trkpt lat="42.5194473" lon="-83.6353941">
        <ele>309.6818848</ele>
        <time>2009-06-14T20:28:08Z</time>
      </trkpt>
      <trkpt lat="42.5197595" lon="-83.6354138">
        <ele>307.2785645</ele>
        <time>2009-06-14T20:28:12Z</time>
      </trkpt>
      <trkpt lat="42.5200228" lon="-83.6351603">
        <ele>306.7978516</ele>
        <time>2009-06-14T20:28:17Z</time>
      </trkpt>
      <trkpt lat="42.5203555" lon="-83.6335694">
        <ele>309.2011719</ele>
        <time>2009-06-14T20:28:41Z</time>
      </trkpt>
      <trkpt lat="42.5205670" lon="-83.6322263">
        <ele>312.0852051</ele>
        <time>2009-06-14T20:29:03Z</time>
      </trkpt>
      <trkpt lat="42.5207041" lon="-83.6305500">
        <ele>310.1624756</ele>
        <time>2009-06-14T20:29:25Z</time>
      </trkpt>
      <trkpt lat="42.5207103" lon="-83.6284610">
        <ele>310.1624756</ele>
        <time>2009-06-14T20:29:48Z</time>
      </trkpt>
      <trkpt lat="42.5206923" lon="-83.6283818">
        <ele>310.1624756</ele>
        <time>2009-06-14T20:29:49Z</time>
      </trkpt>
      <trkpt lat="42.5206926" lon="-83.6281381">
        <ele>311.1237793</ele>
        <time>2009-06-14T20:29:53Z</time>
      </trkpt>
      <trkpt lat="42.5207557" lon="-83.6278392">
        <ele>310.6430664</ele>
        <time>2009-06-14T20:30:00Z</time>
      </trkpt>
      <trkpt lat="42.5207620" lon="-83.6278040">
        <ele>310.6430664</ele>
        <time>2009-06-14T20:30:12Z</time>
      </trkpt>
      <trkpt lat="42.5206976" lon="-83.6282769">
        <ele>311.1237793</ele>
        <time>2009-06-14T20:30:21Z</time>
      </trkpt>
      <trkpt lat="42.5207205" lon="-83.6284554">
        <ele>310.6430664</ele>
        <time>2009-06-14T20:30:24Z</time>
      </trkpt>
      <trkpt lat="42.5207263" lon="-83.6303852">
        <ele>309.6818848</ele>
        <time>2009-06-14T20:30:50Z</time>
      </trkpt>
      <trkpt lat="42.5206247" lon="-83.6317989">
        <ele>313.0465088</ele>
        <time>2009-06-14T20:31:10Z</time>
      </trkpt>
      <trkpt lat="42.5206180" lon="-83.6318580">
        <ele>313.0465088</ele>
        <time>2009-06-14T20:31:11Z</time>
      </trkpt>
      <trkpt lat="42.5203826" lon="-83.6334897">
        <ele>309.6818848</ele>
        <time>2009-06-14T20:31:32Z</time>
      </trkpt>
      <trkpt lat="42.5200050" lon="-83.6352078">
        <ele>306.7978516</ele>
        <time>2009-06-14T20:31:51Z</time>
      </trkpt>
      <trkpt lat="42.5197072" lon="-83.6354217">
        <ele>307.7592773</ele>
        <time>2009-06-14T20:31:58Z</time>
      </trkpt>
      <trkpt lat="42.5194468" lon="-83.6353939">
        <ele>310.1624756</ele>
        <time>2009-06-14T20:32:04Z</time>
      </trkpt>
      <trkpt lat="42.5189286" lon="-83.6353398">
        <ele>313.5272217</ele>
        <time>2009-06-14T20:32:17Z</time>
      </trkpt>
      <trkpt lat="42.5183033" lon="-83.6352478">
        <ele>314.0078125</ele>
        <time>2009-06-14T20:32:32Z</time>
      </trkpt>
      <trkpt lat="42.5173164" lon="-83.6351654">
        <ele>312.5657959</ele>
        <time>2009-06-14T20:32:54Z</time>
      </trkpt>
      <trkpt lat="42.5162738" lon="-83.6348448">
        <ele>311.1237793</ele>
        <time>2009-06-14T20:33:11Z</time>
      </trkpt>
      <trkpt lat="42.5159580" lon="-83.6349924">
        <ele>308.2398682</ele>
        <time>2009-06-14T20:33:16Z</time>
      </trkpt>
      <trkpt lat="42.5159632" lon="-83.6355158">
        <ele>305.3559570</ele>
        <time>2009-06-14T20:33:21Z</time>
      </trkpt>
      <trkpt lat="42.5163167" lon="-83.6370684">
        <ele>301.5106201</ele>
        <time>2009-06-14T20:33:38Z</time>
      </trkpt>
      <trkpt lat="42.5167291" lon="-83.6391539">
        <ele>299.5880127</ele>
        <time>2009-06-14T20:34:02Z</time>
      </trkpt>
      <trkpt lat="42.5167548" lon="-83.6396971">
        <ele>299.1072998</ele>
        <time>2009-06-14T20:34:09Z</time>
      </trkpt>
      <trkpt lat="42.5167549" lon="-83.6402074">
        <ele>299.5880127</ele>
        <time>2009-06-14T20:34:15Z</time>
      </trkpt>
      <trkpt lat="42.5168385" lon="-83.6418861">
        <ele>297.6654053</ele>
        <time>2009-06-14T20:34:35Z</time>
      </trkpt>
      <trkpt lat="42.5168463" lon="-83.6424110">
        <ele>295.2619629</ele>
        <time>2009-06-14T20:34:40Z</time>
      </trkpt>
      <trkpt lat="42.5168662" lon="-83.6441762">
        <ele>292.3781738</ele>
        <time>2009-06-14T20:34:57Z</time>
      </trkpt>
      <trkpt lat="42.5168714" lon="-83.6460736">
        <ele>289.0135498</ele>
        <time>2009-06-14T20:35:17Z</time>
      </trkpt>
      <trkpt lat="42.5168574" lon="-83.6474203">
        <ele>285.6488037</ele>
        <time>2009-06-14T20:35:30Z</time>
      </trkpt>
      <trkpt lat="42.5168638" lon="-83.6487984">
        <ele>282.7650146</ele>
        <time>2009-06-14T20:35:43Z</time>
      </trkpt>
      <trkpt lat="42.5167284" lon="-83.6512533">
        <ele>279.8808594</ele>
        <time>2009-06-14T20:36:07Z</time>
      </trkpt>
      <trkpt lat="42.5164968" lon="-83.6530760">
        <ele>276.9970703</ele>
        <time>2009-06-14T20:36:26Z</time>
      </trkpt>
      <trkpt lat="42.5156062" lon="-83.6546175">
        <ele>274.5937500</ele>
        <time>2009-06-14T20:36:47Z</time>
      </trkpt>
      <trkpt lat="42.5153579" lon="-83.6550647">
        <ele>274.5937500</ele>
        <time>2009-06-14T20:37:03Z</time>
      </trkpt>
      <trkpt lat="42.5153590" lon="-83.6550621">
        <ele>274.5937500</ele>
        <time>2009-06-14T20:37:35Z</time>
      </trkpt>
      <trkpt lat="42.5153764" lon="-83.6556314">
        <ele>274.5937500</ele>
        <time>2009-06-14T20:37:53Z</time>
      </trkpt>
      <trkpt lat="42.5153179" lon="-83.6556983">
        <ele>275.0744629</ele>
        <time>2009-06-14T20:38:15Z</time>
      </trkpt>
      <trkpt lat="42.5151783" lon="-83.6559102">
        <ele>275.0744629</ele>
        <time>2009-06-14T20:38:23Z</time>
      </trkpt>
      <trkpt lat="42.5149069" lon="-83.6565056">
        <ele>276.0356445</ele>
        <time>2009-06-14T20:38:35Z</time>
      </trkpt>
      <trkpt lat="42.5148938" lon="-83.6570006">
        <ele>276.5163574</ele>
        <time>2009-06-14T20:38:42Z</time>
      </trkpt>
      <trkpt lat="42.5148665" lon="-83.6588006">
        <ele>276.5163574</ele>
        <time>2009-06-14T20:39:06Z</time>
      </trkpt>
      <trkpt lat="42.5148137" lon="-83.6593154">
        <ele>277.9582520</ele>
        <time>2009-06-14T20:39:13Z</time>
      </trkpt>
      <trkpt lat="42.5147704" lon="-83.6594456">
        <ele>278.9196777</ele>
        <time>2009-06-14T20:39:15Z</time>
      </trkpt>
      <trkpt lat="42.5145708" lon="-83.6598977">
        <ele>279.8808594</ele>
        <time>2009-06-14T20:39:22Z</time>
      </trkpt>
      <trkpt lat="42.5144961" lon="-83.6602296">
        <ele>280.3616943</ele>
        <time>2009-06-14T20:39:27Z</time>
      </trkpt>
      <trkpt lat="42.5144685" lon="-83.6604957">
        <ele>280.3616943</ele>
        <time>2009-06-14T20:39:31Z</time>
      </trkpt>
      <trkpt lat="42.5147527" lon="-83.6616202">
        <ele>279.4002686</ele>
        <time>2009-06-14T20:39:46Z</time>
      </trkpt>
      <trkpt lat="42.5148253" lon="-83.6620100">
        <ele>279.4002686</ele>
        <time>2009-06-14T20:39:51Z</time>
      </trkpt>
      <trkpt lat="42.5148077" lon="-83.6623610">
        <ele>279.4002686</ele>
        <time>2009-06-14T20:39:56Z</time>
      </trkpt>
      <trkpt lat="42.5147662" lon="-83.6625276">
        <ele>279.4002686</ele>
        <time>2009-06-14T20:39:59Z</time>
      </trkpt>
      <trkpt lat="42.5148107" lon="-83.6629764">
        <ele>278.9196777</ele>
        <time>2009-06-14T20:40:06Z</time>
      </trkpt>
      <trkpt lat="42.5151350" lon="-83.6631755">
        <ele>278.9196777</ele>
        <time>2009-06-14T20:40:15Z</time>
      </trkpt>
      <trkpt lat="42.5156294" lon="-83.6625986">
        <ele>275.0744629</ele>
        <time>2009-06-14T20:40:25Z</time>
      </trkpt>
      <trkpt lat="42.5158875" lon="-83.6623004">
        <ele>273.6324463</ele>
        <time>2009-06-14T20:40:29Z</time>
      </trkpt>
      <trkpt lat="42.5159922" lon="-83.6621146">
        <ele>273.1518555</ele>
        <time>2009-06-14T20:40:31Z</time>
      </trkpt>
      <trkpt lat="42.5161158" lon="-83.6618230">
        <ele>271.7097168</ele>
        <time>2009-06-14T20:40:34Z</time>
      </trkpt>
      <trkpt lat="42.5163813" lon="-83.6615667">
        <ele>269.7871094</ele>
        <time>2009-06-14T20:40:38Z</time>
      </trkpt>
      <trkpt lat="42.5166788" lon="-83.6614124">
        <ele>269.3065186</ele>
        <time>2009-06-14T20:40:43Z</time>
      </trkpt>
      <trkpt lat="42.5167335" lon="-83.6612607">
        <ele>270.2677002</ele>
        <time>2009-06-14T20:40:47Z</time>
      </trkpt>
      <trkpt lat="42.5168154" lon="-83.6610583">
        <ele>271.2291260</ele>
        <time>2009-06-14T20:40:56Z</time>
      </trkpt>
      <trkpt lat="42.5168292" lon="-83.6617379">
        <ele>271.7097168</ele>
        <time>2009-06-14T20:41:14Z</time>
      </trkpt>
      <trkpt lat="42.5168267" lon="-83.6618049">
        <ele>271.7097168</ele>
        <time>2009-06-14T20:41:15Z</time>
      </trkpt>
      <trkpt lat="42.5169116" lon="-83.6632395">
        <ele>270.7484131</ele>
        <time>2009-06-14T20:41:33Z</time>
      </trkpt>
      <trkpt lat="42.5170987" lon="-83.6635670">
        <ele>272.1904297</ele>
        <time>2009-06-14T20:41:40Z</time>
      </trkpt>
      <trkpt lat="42.5180872" lon="-83.6636021">
        <ele>271.2291260</ele>
        <time>2009-06-14T20:41:58Z</time>
      </trkpt>
      <trkpt lat="42.5183583" lon="-83.6632510">
        <ele>271.2291260</ele>
        <time>2009-06-14T20:42:04Z</time>
      </trkpt>
      <trkpt lat="42.5183884" lon="-83.6631091">
        <ele>272.1904297</ele>
        <time>2009-06-14T20:42:06Z</time>
      </trkpt>
      <trkpt lat="42.5186340" lon="-83.6629334">
        <ele>271.7097168</ele>
        <time>2009-06-14T20:42:13Z</time>
      </trkpt>
      <trkpt lat="42.5188590" lon="-83.6630148">
        <ele>270.7484131</ele>
        <time>2009-06-14T20:42:17Z</time>
      </trkpt>
      <trkpt lat="42.5190724" lon="-83.6632725">
        <ele>270.7484131</ele>
        <time>2009-06-14T20:42:22Z</time>
      </trkpt>
      <trkpt lat="42.5191018" lon="-83.6634186">
        <ele>270.7484131</ele>
        <time>2009-06-14T20:42:24Z</time>
      </trkpt>
      <trkpt lat="42.5191362" lon="-83.6635451">
        <ele>271.7097168</ele>
        <time>2009-06-14T20:42:26Z</time>
      </trkpt>
      <trkpt lat="42.5192135" lon="-83.6638109">
        <ele>271.7097168</ele>
        <time>2009-06-14T20:42:30Z</time>
      </trkpt>
      <trkpt lat="42.5192835" lon="-83.6639264">
        <ele>271.2291260</ele>
        <time>2009-06-14T20:42:32Z</time>
      </trkpt>
      <trkpt lat="42.5194022" lon="-83.6640690">
        <ele>271.2291260</ele>
        <time>2009-06-14T20:42:35Z</time>
      </trkpt>
      <trkpt lat="42.5196889" lon="-83.6641673">
        <ele>269.7871094</ele>
        <time>2009-06-14T20:42:40Z</time>
      </trkpt>
      <trkpt lat="42.5203675" lon="-83.6639140">
        <ele>270.2677002</ele>
        <time>2009-06-14T20:42:51Z</time>
      </trkpt>
      <trkpt lat="42.5208087" lon="-83.6643240">
        <ele>269.7871094</ele>
        <time>2009-06-14T20:43:02Z</time>
      </trkpt>
      <trkpt lat="42.5209073" lon="-83.6647966">
        <ele>270.2677002</ele>
        <time>2009-06-14T20:43:09Z</time>
      </trkpt>
      <trkpt lat="42.5210044" lon="-83.6648953">
        <ele>270.2677002</ele>
        <time>2009-06-14T20:43:11Z</time>
      </trkpt>
      <trkpt lat="42.5211798" lon="-83.6659842">
        <ele>270.2677002</ele>
        <time>2009-06-14T20:43:25Z</time>
      </trkpt>
      <trkpt lat="42.5216910" lon="-83.6670677">
        <ele>269.7871094</ele>
        <time>2009-06-14T20:43:41Z</time>
      </trkpt>
      <trkpt lat="42.5220615" lon="-83.6673458">
        <ele>270.2677002</ele>
        <time>2009-06-14T20:43:48Z</time>
      </trkpt>
      <trkpt lat="42.5223549" lon="-83.6676264">
        <ele>269.7871094</ele>
        <time>2009-06-14T20:43:56Z</time>
      </trkpt>
      <trkpt lat="42.5229181" lon="-83.6681320">
        <ele>270.2677002</ele>
        <time>2009-06-14T20:44:13Z</time>
      </trkpt>
      <trkpt lat="42.5231580" lon="-83.6681761">
        <ele>270.2677002</ele>
        <time>2009-06-14T20:44:17Z</time>
      </trkpt>
      <trkpt lat="42.5235768" lon="-83.6684435">
        <ele>270.2677002</ele>
        <time>2009-06-14T20:44:26Z</time>
      </trkpt>
      <trkpt lat="42.5236459" lon="-83.6687279">
        <ele>270.7484131</ele>
        <time>2009-06-14T20:44:30Z</time>
      </trkpt>
      <trkpt lat="42.5237869" lon="-83.6689993">
        <ele>272.1904297</ele>
        <time>2009-06-14T20:44:35Z</time>
      </trkpt>
      <trkpt lat="42.5239507" lon="-83.6692254">
        <ele>271.7097168</ele>
        <time>2009-06-14T20:44:40Z</time>
      </trkpt>
      <trkpt lat="42.5240572" lon="-83.6696174">
        <ele>271.7097168</ele>
        <time>2009-06-14T20:44:46Z</time>
      </trkpt>
      <trkpt lat="42.5240053" lon="-83.6703989">
        <ele>271.2291260</ele>
        <time>2009-06-14T20:44:57Z</time>
      </trkpt>
      <trkpt lat="42.5241774" lon="-83.6707790">
        <ele>271.2291260</ele>
        <time>2009-06-14T20:45:04Z</time>
      </trkpt>
      <trkpt lat="42.5246009" lon="-83.6708786">
        <ele>271.2291260</ele>
        <time>2009-06-14T20:45:13Z</time>
      </trkpt>
      <trkpt lat="42.5247512" lon="-83.6708458">
        <ele>271.2291260</ele>
        <time>2009-06-14T20:45:18Z</time>
      </trkpt>
      <trkpt lat="42.5252700" lon="-83.6703337">
        <ele>271.2291260</ele>
        <time>2009-06-14T20:45:35Z</time>
      </trkpt>
      <trkpt lat="42.5254706" lon="-83.6704215">
        <ele>270.7484131</ele>
        <time>2009-06-14T20:45:40Z</time>
      </trkpt>
      <trkpt lat="42.5255815" lon="-83.6705673">
        <ele>270.7484131</ele>
        <time>2009-06-14T20:45:43Z</time>
      </trkpt>
      <trkpt lat="42.5257222" lon="-83.6707775">
        <ele>270.7484131</ele>
        <time>2009-06-14T20:45:47Z</time>
      </trkpt>
      <trkpt lat="42.5259499" lon="-83.6709459">
        <ele>270.7484131</ele>
        <time>2009-06-14T20:45:52Z</time>
      </trkpt>
      <trkpt lat="42.5265648" lon="-83.6711896">
        <ele>270.2677002</ele>
        <time>2009-06-14T20:46:03Z</time>
      </trkpt>
      <trkpt lat="42.5269032" lon="-83.6712364">
        <ele>270.2677002</ele>
        <time>2009-06-14T20:46:09Z</time>
      </trkpt>
      <trkpt lat="42.5270655" lon="-83.6712089">
        <ele>270.2677002</ele>
        <time>2009-06-14T20:46:12Z</time>
      </trkpt>
      <trkpt lat="42.5272573" lon="-83.6710970">
        <ele>270.7484131</ele>
        <time>2009-06-14T20:46:16Z</time>
      </trkpt>
      <trkpt lat="42.5273787" lon="-83.6710181">
        <ele>270.7484131</ele>
        <time>2009-06-14T20:46:19Z</time>
      </trkpt>
      <trkpt lat="42.5275580" lon="-83.6709048">
        <ele>270.2677002</ele>
        <time>2009-06-14T20:46:23Z</time>
      </trkpt>
      <trkpt lat="42.5277774" lon="-83.6705968">
        <ele>270.2677002</ele>
        <time>2009-06-14T20:46:29Z</time>
      </trkpt>
      <trkpt lat="42.5278565" lon="-83.6701151">
        <ele>271.7097168</ele>
        <time>2009-06-14T20:46:37Z</time>
      </trkpt>
      <trkpt lat="42.5281978" lon="-83.6688087">
        <ele>270.2677002</ele>
        <time>2009-06-14T20:46:56Z</time>
      </trkpt>
      <trkpt lat="42.5283743" lon="-83.6684688">
        <ele>269.7871094</ele>
        <time>2009-06-14T20:47:01Z</time>
      </trkpt>
      <trkpt lat="42.5287145" lon="-83.6680359">
        <ele>269.7871094</ele>
        <time>2009-06-14T20:47:09Z</time>
      </trkpt>
      <trkpt lat="42.5287886" lon="-83.6677995">
        <ele>270.7484131</ele>
        <time>2009-06-14T20:47:13Z</time>
      </trkpt>
      <trkpt lat="42.5287428" lon="-83.6674735">
        <ele>272.1904297</ele>
        <time>2009-06-14T20:47:19Z</time>
      </trkpt>
      <trkpt lat="42.5287647" lon="-83.6666008">
        <ele>273.6324463</ele>
        <time>2009-06-14T20:47:35Z</time>
      </trkpt>
      <trkpt lat="42.5291422" lon="-83.6662915">
        <ele>273.1518555</ele>
        <time>2009-06-14T20:47:46Z</time>
      </trkpt>
      <trkpt lat="42.5293129" lon="-83.6662440">
        <ele>273.1518555</ele>
        <time>2009-06-14T20:47:49Z</time>
      </trkpt>
      <trkpt lat="42.5294654" lon="-83.6661764">
        <ele>272.6711426</ele>
        <time>2009-06-14T20:47:52Z</time>
      </trkpt>
      <trkpt lat="42.5298917" lon="-83.6652121">
        <ele>270.7484131</ele>
        <time>2009-06-14T20:48:05Z</time>
      </trkpt>
      <trkpt lat="42.5302235" lon="-83.6646878">
        <ele>271.7097168</ele>
        <time>2009-06-14T20:48:13Z</time>
      </trkpt>
      <trkpt lat="42.5303064" lon="-83.6645871">
        <ele>272.1904297</ele>
        <time>2009-06-14T20:48:15Z</time>
      </trkpt>
      <trkpt lat="42.5310949" lon="-83.6640240">
        <ele>270.7484131</ele>
        <time>2009-06-14T20:48:29Z</time>
      </trkpt>
      <trkpt lat="42.5316853" lon="-83.6634642">
        <ele>271.2291260</ele>
        <time>2009-06-14T20:48:41Z</time>
      </trkpt>
      <trkpt lat="42.5318702" lon="-83.6633447">
        <ele>271.2291260</ele>
        <time>2009-06-14T20:48:45Z</time>
      </trkpt>
      <trkpt lat="42.5324487" lon="-83.6626929">
        <ele>272.1904297</ele>
        <time>2009-06-14T20:48:58Z</time>
      </trkpt>
      <trkpt lat="42.5329366" lon="-83.6619351">
        <ele>273.6324463</ele>
        <time>2009-06-14T20:49:16Z</time>
      </trkpt>
      <trkpt lat="42.5333593" lon="-83.6614080">
        <ele>274.1130371</ele>
        <time>2009-06-14T20:49:27Z</time>
      </trkpt>
      <trkpt lat="42.5335604" lon="-83.6610946">
        <ele>273.1518555</ele>
        <time>2009-06-14T20:49:32Z</time>
      </trkpt>
      <trkpt lat="42.5336366" lon="-83.6607365">
        <ele>272.6711426</ele>
        <time>2009-06-14T20:49:37Z</time>
      </trkpt>
      <trkpt lat="42.5335796" lon="-83.6603366">
        <ele>272.6711426</ele>
        <time>2009-06-14T20:49:42Z</time>
      </trkpt>
      <trkpt lat="42.5334557" lon="-83.6600586">
        <ele>272.6711426</ele>
        <time>2009-06-14T20:49:46Z</time>
      </trkpt>
      <trkpt lat="42.5334013" lon="-83.6596234">
        <ele>273.1518555</ele>
        <time>2009-06-14T20:49:52Z</time>
      </trkpt>
      <trkpt lat="42.5332500" lon="-83.6589855">
        <ele>275.0744629</ele>
        <time>2009-06-14T20:50:05Z</time>
      </trkpt>
      <trkpt lat="42.5332185" lon="-83.6589487">
        <ele>275.0744629</ele>
        <time>2009-06-14T20:50:06Z</time>
      </trkpt>
      <trkpt lat="42.5331279" lon="-83.6588532">
        <ele>274.5937500</ele>
        <time>2009-06-14T20:50:08Z</time>
      </trkpt>
      <trkpt lat="42.5329603" lon="-83.6585597">
        <ele>274.1130371</ele>
        <time>2009-06-14T20:50:13Z</time>
      </trkpt>
      <trkpt lat="42.5328629" lon="-83.6582432">
        <ele>273.6324463</ele>
        <time>2009-06-14T20:50:18Z</time>
      </trkpt>
      <trkpt lat="42.5327622" lon="-83.6575912">
        <ele>272.1904297</ele>
        <time>2009-06-14T20:50:27Z</time>
      </trkpt>
      <trkpt lat="42.5327357" lon="-83.6570685">
        <ele>271.7097168</ele>
        <time>2009-06-14T20:50:33Z</time>
      </trkpt>
      <trkpt lat="42.5330347" lon="-83.6562227">
        <ele>274.5937500</ele>
        <time>2009-06-14T20:50:50Z</time>
      </trkpt>
      <trkpt lat="42.5332864" lon="-83.6557981">
        <ele>274.5937500</ele>
        <time>2009-06-14T20:50:58Z</time>
      </trkpt>
      <trkpt lat="42.5335032" lon="-83.6553493">
        <ele>274.1130371</ele>
        <time>2009-06-14T20:51:04Z</time>
      </trkpt>
      <trkpt lat="42.5337626" lon="-83.6546376">
        <ele>276.9970703</ele>
        <time>2009-06-14T20:51:16Z</time>
      </trkpt>
      <trkpt lat="42.5339241" lon="-83.6543426">
        <ele>278.4389648</ele>
        <time>2009-06-14T20:51:21Z</time>
      </trkpt>
      <trkpt lat="42.5341940" lon="-83.6536628">
        <ele>277.9582520</ele>
        <time>2009-06-14T20:51:31Z</time>
      </trkpt>
      <trkpt lat="42.5343482" lon="-83.6532406">
        <ele>276.9970703</ele>
        <time>2009-06-14T20:51:37Z</time>
      </trkpt>
      <trkpt lat="42.5345239" lon="-83.6519986">
        <ele>275.5550537</ele>
        <time>2009-06-14T20:51:51Z</time>
      </trkpt>
      <trkpt lat="42.5345519" lon="-83.6514013">
        <ele>276.9970703</ele>
        <time>2009-06-14T20:51:59Z</time>
      </trkpt>
      <trkpt lat="42.5344957" lon="-83.6512968">
        <ele>277.4776611</ele>
        <time>2009-06-14T20:52:01Z</time>
      </trkpt>
      <trkpt lat="42.5344064" lon="-83.6511221">
        <ele>276.5163574</ele>
        <time>2009-06-14T20:52:04Z</time>
      </trkpt>
      <trkpt lat="42.5341583" lon="-83.6507233">
        <ele>274.5937500</ele>
        <time>2009-06-14T20:52:10Z</time>
      </trkpt>
      <trkpt lat="42.5341293" lon="-83.6502416">
        <ele>274.1130371</ele>
        <time>2009-06-14T20:52:15Z</time>
      </trkpt>
      <trkpt lat="42.5344701" lon="-83.6482408">
        <ele>271.7097168</ele>
        <time>2009-06-14T20:52:35Z</time>
      </trkpt>
      <trkpt lat="42.5347368" lon="-83.6476309">
        <ele>272.6711426</ele>
        <time>2009-06-14T20:52:48Z</time>
      </trkpt>
      <trkpt lat="42.5348011" lon="-83.6474310">
        <ele>271.7097168</ele>
        <time>2009-06-14T20:52:51Z</time>
      </trkpt>
      <trkpt lat="42.5348337" lon="-83.6470058">
        <ele>271.2291260</ele>
        <time>2009-06-14T20:52:56Z</time>
      </trkpt>
      <trkpt lat="42.5347682" lon="-83.6462840">
        <ele>274.5937500</ele>
        <time>2009-06-14T20:53:07Z</time>
      </trkpt>
      <trkpt lat="42.5346193" lon="-83.6459407">
        <ele>274.5937500</ele>
        <time>2009-06-14T20:53:14Z</time>
      </trkpt>
      <trkpt lat="42.5344499" lon="-83.6453723">
        <ele>274.5937500</ele>
        <time>2009-06-14T20:53:29Z</time>
      </trkpt>
      <trkpt lat="42.5344126" lon="-83.6452956">
        <ele>274.5937500</ele>
        <time>2009-06-14T20:53:33Z</time>
      </trkpt>
      <trkpt lat="42.5343688" lon="-83.6451545">
        <ele>274.5937500</ele>
        <time>2009-06-14T20:53:37Z</time>
      </trkpt>
      <trkpt lat="42.5344111" lon="-83.6449852">
        <ele>274.5937500</ele>
        <time>2009-06-14T20:53:42Z</time>
      </trkpt>
      <trkpt lat="42.5347901" lon="-83.6444183">
        <ele>274.1130371</ele>
        <time>2009-06-14T20:53:57Z</time>
      </trkpt>
      <trkpt lat="42.5347629" lon="-83.6444048">
        <ele>274.1130371</ele>
        <time>2009-06-14T20:54:02Z</time>
      </trkpt>
      <trkpt lat="42.5347586" lon="-83.6444938">
        <ele>273.6324463</ele>
        <time>2009-06-14T20:54:17Z</time>
      </trkpt>
      <trkpt lat="42.5347618" lon="-83.6444966">
        <ele>274.1130371</ele>
        <time>2009-06-14T20:55:50Z</time>
      </trkpt>
      <trkpt lat="42.5349335" lon="-83.6438747">
        <ele>272.6711426</ele>
        <time>2009-06-14T20:56:05Z</time>
      </trkpt>
      <trkpt lat="42.5349705" lon="-83.6431832">
        <ele>272.1904297</ele>
        <time>2009-06-14T20:56:14Z</time>
      </trkpt>
      <trkpt lat="42.5346876" lon="-83.6420291">
        <ele>271.7097168</ele>
        <time>2009-06-14T20:56:35Z</time>
      </trkpt>
      <trkpt lat="42.5345721" lon="-83.6409417">
        <ele>271.2291260</ele>
        <time>2009-06-14T20:56:58Z</time>
      </trkpt>
      <trkpt lat="42.5345500" lon="-83.6403041">
        <ele>271.7097168</ele>
        <time>2009-06-14T20:57:16Z</time>
      </trkpt>
      <trkpt lat="42.5342490" lon="-83.6396615">
        <ele>272.1904297</ele>
        <time>2009-06-14T20:57:35Z</time>
      </trkpt>
      <trkpt lat="42.5339769" lon="-83.6390252">
        <ele>271.2291260</ele>
        <time>2009-06-14T20:57:50Z</time>
      </trkpt>
      <trkpt lat="42.5340151" lon="-83.6387036">
        <ele>272.1904297</ele>
        <time>2009-06-14T20:57:56Z</time>
      </trkpt>
      <trkpt lat="42.5340655" lon="-83.6386019">
        <ele>271.7097168</ele>
        <time>2009-06-14T20:57:58Z</time>
      </trkpt>
      <trkpt lat="42.5342002" lon="-83.6384321">
        <ele>271.7097168</ele>
        <time>2009-06-14T20:58:02Z</time>
      </trkpt>
      <trkpt lat="42.5342798" lon="-83.6383633">
        <ele>271.7097168</ele>
        <time>2009-06-14T20:58:04Z</time>
      </trkpt>
      <trkpt lat="42.5344943" lon="-83.6383110">
        <ele>272.1904297</ele>
        <time>2009-06-14T20:58:09Z</time>
      </trkpt>
      <trkpt lat="42.5347366" lon="-83.6384086">
        <ele>273.1518555</ele>
        <time>2009-06-14T20:58:15Z</time>
      </trkpt>
      <trkpt lat="42.5355299" lon="-83.6389044">
        <ele>276.0356445</ele>
        <time>2009-06-14T20:58:35Z</time>
      </trkpt>
      <trkpt lat="42.5360767" lon="-83.6393298">
        <ele>277.4776611</ele>
        <time>2009-06-14T20:58:49Z</time>
      </trkpt>
      <trkpt lat="42.5369066" lon="-83.6393324">
        <ele>278.4389648</ele>
        <time>2009-06-14T20:59:08Z</time>
      </trkpt>
      <trkpt lat="42.5370921" lon="-83.6393139">
        <ele>278.9196777</ele>
        <time>2009-06-14T20:59:12Z</time>
      </trkpt>
      <trkpt lat="42.5372410" lon="-83.6393552">
        <ele>278.4389648</ele>
        <time>2009-06-14T20:59:15Z</time>
      </trkpt>
      <trkpt lat="42.5374989" lon="-83.6395277">
        <ele>279.4002686</ele>
        <time>2009-06-14T20:59:21Z</time>
      </trkpt>
      <trkpt lat="42.5378949" lon="-83.6401489">
        <ele>281.8035889</ele>
        <time>2009-06-14T20:59:35Z</time>
      </trkpt>
      <trkpt lat="42.5384565" lon="-83.6402880">
        <ele>285.1682129</ele>
        <time>2009-06-14T20:59:50Z</time>
      </trkpt>
      <trkpt lat="42.5388564" lon="-83.6404773">
        <ele>285.6488037</ele>
        <time>2009-06-14T20:59:59Z</time>
      </trkpt>
      <trkpt lat="42.5395564" lon="-83.6407392">
        <ele>288.5329590</ele>
        <time>2009-06-14T21:00:15Z</time>
      </trkpt>
      <trkpt lat="42.5396308" lon="-83.6407594">
        <ele>288.5329590</ele>
        <time>2009-06-14T21:00:17Z</time>
      </trkpt>
      <trkpt lat="42.5400926" lon="-83.6407601">
        <ele>289.0135498</ele>
        <time>2009-06-14T21:00:27Z</time>
      </trkpt>
      <trkpt lat="42.5409046" lon="-83.6399493">
        <ele>285.6488037</ele>
        <time>2009-06-14T21:00:43Z</time>
      </trkpt>
      <trkpt lat="42.5415088" lon="-83.6389932">
        <ele>283.7261963</ele>
        <time>2009-06-14T21:00:55Z</time>
      </trkpt>
      <trkpt lat="42.5422007" lon="-83.6372748">
        <ele>281.8035889</ele>
        <time>2009-06-14T21:01:14Z</time>
      </trkpt>
      <trkpt lat="42.5424393" lon="-83.6364380">
        <ele>281.8035889</ele>
        <time>2009-06-14T21:01:24Z</time>
      </trkpt>
      <trkpt lat="42.5425594" lon="-83.6362776">
        <ele>281.8035889</ele>
        <time>2009-06-14T21:01:31Z</time>
      </trkpt>
      <trkpt lat="42.5426139" lon="-83.6362925">
        <ele>282.2843018</ele>
        <time>2009-06-14T21:01:34Z</time>
      </trkpt>
      <trkpt lat="42.5426808" lon="-83.6364632">
        <ele>281.3229980</ele>
        <time>2009-06-14T21:01:39Z</time>
      </trkpt>
      <trkpt lat="42.5427073" lon="-83.6368528">
        <ele>277.9582520</ele>
        <time>2009-06-14T21:01:44Z</time>
      </trkpt>
      <trkpt lat="42.5426873" lon="-83.6371898">
        <ele>276.5163574</ele>
        <time>2009-06-14T21:01:47Z</time>
      </trkpt>
      <trkpt lat="42.5426439" lon="-83.6375229">
        <ele>274.5937500</ele>
        <time>2009-06-14T21:01:50Z</time>
      </trkpt>
      <trkpt lat="42.5425684" lon="-83.6380721">
        <ele>272.6711426</ele>
        <time>2009-06-14T21:01:55Z</time>
      </trkpt>
      <trkpt lat="42.5425528" lon="-83.6381862">
        <ele>272.6711426</ele>
        <time>2009-06-14T21:01:56Z</time>
      </trkpt>
      <trkpt lat="42.5428647" lon="-83.6388489">
        <ele>271.7097168</ele>
        <time>2009-06-14T21:02:05Z</time>
      </trkpt>
      <trkpt lat="42.5438007" lon="-83.6395452">
        <ele>273.1518555</ele>
        <time>2009-06-14T21:02:23Z</time>
      </trkpt>
      <trkpt lat="42.5441523" lon="-83.6398829">
        <ele>276.5163574</ele>
        <time>2009-06-14T21:02:34Z</time>
      </trkpt>
      <trkpt lat="42.5446763" lon="-83.6401609">
        <ele>277.4776611</ele>
        <time>2009-06-14T21:02:50Z</time>
      </trkpt>
      <trkpt lat="42.5457482" lon="-83.6400684">
        <ele>276.9970703</ele>
        <time>2009-06-14T21:03:14Z</time>
      </trkpt>
      <trkpt lat="42.5465962" lon="-83.6399679">
        <ele>280.3616943</ele>
        <time>2009-06-14T21:03:38Z</time>
      </trkpt>
      <trkpt lat="42.5474594" lon="-83.6398402">
        <ele>282.7650146</ele>
        <time>2009-06-14T21:04:03Z</time>
      </trkpt>
      <trkpt lat="42.5483210" lon="-83.6394795">
        <ele>282.7650146</ele>
        <time>2009-06-14T21:04:25Z</time>
      </trkpt>
      <trkpt lat="42.5484790" lon="-83.6392666">
        <ele>283.2456055</ele>
        <time>2009-06-14T21:04:30Z</time>
      </trkpt>
      <trkpt lat="42.5485297" lon="-83.6390080">
        <ele>282.7650146</ele>
        <time>2009-06-14T21:04:34Z</time>
      </trkpt>
      <trkpt lat="42.5485479" lon="-83.6387903">
        <ele>283.2456055</ele>
        <time>2009-06-14T21:04:37Z</time>
      </trkpt>
      <trkpt lat="42.5485724" lon="-83.6384647">
        <ele>283.7261963</ele>
        <time>2009-06-14T21:04:42Z</time>
      </trkpt>
      <trkpt lat="42.5486418" lon="-83.6382269">
        <ele>284.2069092</ele>
        <time>2009-06-14T21:04:46Z</time>
      </trkpt>
      <trkpt lat="42.5487521" lon="-83.6380378">
        <ele>282.7650146</ele>
        <time>2009-06-14T21:04:49Z</time>
      </trkpt>
      <trkpt lat="42.5488623" lon="-83.6377332">
        <ele>282.7650146</ele>
        <time>2009-06-14T21:04:53Z</time>
      </trkpt>
      <trkpt lat="42.5489256" lon="-83.6375074">
        <ele>282.7650146</ele>
        <time>2009-06-14T21:04:56Z</time>
      </trkpt>
      <trkpt lat="42.5489985" lon="-83.6367402">
        <ele>280.3616943</ele>
        <time>2009-06-14T21:05:05Z</time>
      </trkpt>
      <trkpt lat="42.5486883" lon="-83.6358053">
        <ele>277.9582520</ele>
        <time>2009-06-14T21:05:17Z</time>
      </trkpt>
      <trkpt lat="42.5487027" lon="-83.6357212">
        <ele>277.4776611</ele>
        <time>2009-06-14T21:05:18Z</time>
      </trkpt>
      <trkpt lat="42.5487335" lon="-83.6354822">
        <ele>277.9582520</ele>
        <time>2009-06-14T21:05:21Z</time>
      </trkpt>
      <trkpt lat="42.5487149" lon="-83.6352680">
        <ele>276.9970703</ele>
        <time>2009-06-14T21:05:24Z</time>
      </trkpt>
      <trkpt lat="42.5484707" lon="-83.6347625">
        <ele>274.5937500</ele>
        <time>2009-06-14T21:05:31Z</time>
      </trkpt>
      <trkpt lat="42.5484180" lon="-83.6339626">
        <ele>273.6324463</ele>
        <time>2009-06-14T21:05:40Z</time>
      </trkpt>
      <trkpt lat="42.5486443" lon="-83.6336394">
        <ele>273.1518555</ele>
        <time>2009-06-14T21:05:46Z</time>
      </trkpt>
      <trkpt lat="42.5492893" lon="-83.6332029">
        <ele>273.1518555</ele>
        <time>2009-06-14T21:06:00Z</time>
      </trkpt>
      <trkpt lat="42.5494270" lon="-83.6330272">
        <ele>273.6324463</ele>
        <time>2009-06-14T21:06:04Z</time>
      </trkpt>
      <trkpt lat="42.5495375" lon="-83.6327203">
        <ele>274.5937500</ele>
        <time>2009-06-14T21:06:10Z</time>
      </trkpt>
      <trkpt lat="42.5495043" lon="-83.6322276">
        <ele>274.5937500</ele>
        <time>2009-06-14T21:06:27Z</time>
      </trkpt>
      <trkpt lat="42.5494495" lon="-83.6320465">
        <ele>273.6324463</ele>
        <time>2009-06-14T21:07:00Z</time>
      </trkpt>
      <trkpt lat="42.5494317" lon="-83.6319831">
        <ele>274.5937500</ele>
        <time>2009-06-14T21:07:03Z</time>
      </trkpt>
      <trkpt lat="42.5494999" lon="-83.6319771">
        <ele>273.6324463</ele>
        <time>2009-06-14T21:07:07Z</time>
      </trkpt>
      <trkpt lat="42.5498473" lon="-83.6328549">
        <ele>276.0356445</ele>
        <time>2009-06-14T21:07:28Z</time>
      </trkpt>
      <trkpt lat="42.5500085" lon="-83.6334505">
        <ele>279.4002686</ele>
        <time>2009-06-14T21:07:44Z</time>
      </trkpt>
      <trkpt lat="42.5500839" lon="-83.6340163">
        <ele>282.7650146</ele>
        <time>2009-06-14T21:07:58Z</time>
      </trkpt>
      <trkpt lat="42.5500866" lon="-83.6340628">
        <ele>282.7650146</ele>
        <time>2009-06-14T21:07:59Z</time>
      </trkpt>
      <trkpt lat="42.5501265" lon="-83.6345253">
        <ele>285.6488037</ele>
        <time>2009-06-14T21:08:10Z</time>
      </trkpt>
      <trkpt lat="42.5501168" lon="-83.6351766">
        <ele>289.0135498</ele>
        <time>2009-06-14T21:08:27Z</time>
      </trkpt>
      <trkpt lat="42.5501204" lon="-83.6357517">
        <ele>291.8974609</ele>
        <time>2009-06-14T21:08:44Z</time>
      </trkpt>
      <trkpt lat="42.5501151" lon="-83.6362945">
        <ele>295.2619629</ele>
        <time>2009-06-14T21:08:59Z</time>
      </trkpt>
      <trkpt lat="42.5500991" lon="-83.6369010">
        <ele>298.1461182</ele>
        <time>2009-06-14T21:09:16Z</time>
      </trkpt>
      <trkpt lat="42.5500551" lon="-83.6379527">
        <ele>301.5106201</ele>
        <time>2009-06-14T21:09:43Z</time>
      </trkpt>
      <trkpt lat="42.5499293" lon="-83.6396357">
        <ele>299.5880127</ele>
        <time>2009-06-14T21:10:12Z</time>
      </trkpt>
      <trkpt lat="42.5496882" lon="-83.6402508">
        <ele>297.6654053</ele>
        <time>2009-06-14T21:10:22Z</time>
      </trkpt>
      <trkpt lat="42.5496094" lon="-83.6406117">
        <ele>297.1846924</ele>
        <time>2009-06-14T21:10:28Z</time>
      </trkpt>
      <trkpt lat="42.5497586" lon="-83.6413450">
        <ele>301.0299072</ele>
        <time>2009-06-14T21:10:44Z</time>
      </trkpt>
      <trkpt lat="42.5496984" lon="-83.6422015">
        <ele>301.0299072</ele>
        <time>2009-06-14T21:10:59Z</time>
      </trkpt>
      <trkpt lat="42.5496425" lon="-83.6428429">
        <ele>301.5106201</ele>
        <time>2009-06-14T21:11:11Z</time>
      </trkpt>
      <trkpt lat="42.5491110" lon="-83.6429717">
        <ele>303.4332275</ele>
        <time>2009-06-14T21:11:26Z</time>
      </trkpt>
      <trkpt lat="42.5484345" lon="-83.6430195">
        <ele>304.3946533</ele>
        <time>2009-06-14T21:11:44Z</time>
      </trkpt>
      <trkpt lat="42.5483946" lon="-83.6430447">
        <ele>304.3946533</ele>
        <time>2009-06-14T21:11:45Z</time>
      </trkpt>
      <trkpt lat="42.5483414" lon="-83.6432141">
        <ele>305.3559570</ele>
        <time>2009-06-14T21:11:50Z</time>
      </trkpt>
      <trkpt lat="42.5483576" lon="-83.6433332">
        <ele>305.3559570</ele>
        <time>2009-06-14T21:12:24Z</time>
      </trkpt>
    </trkseg>
  </trk>

</gpx>
